<gpx creator="Cyclotour.ca" version="1.1" xmlns:gpsies="http://www.gpsies.com/GPX/1/0" xmlns:xsi="http://www.w3.org/2001/XMLSchema-instance" xmlns="http://www.topografix.com/GPX/1/1" xsi:schemaLocation="http://www.topografix.com/GPX/1/1 http://www.topografix.com/GPX/1/1/gpx.xsd http://www.gpsies.com/GPX/1/0 http://www.gpsies.com/gpsies.xsd">
<trk>
<name>Ste-Anne-de-la Pérade - Deschambault  (2019) </name>
<trkseg>
<trkpt lat="46.574170000" lon="-72.203930000">
<ele>0</ele>
<time>2026-09-04T07:19:41Z</time>
</trkpt>
<trkpt lat="46.573230000" lon="-72.205340000">
<ele>0</ele>
<time>2026-09-04T07:19:42Z</time>
</trkpt>
<trkpt lat="46.573300000" lon="-72.205340000">
<ele>0</ele>
<time>2026-09-04T07:19:43Z</time>
</trkpt>
<trkpt lat="46.573300000" lon="-72.205340000">
<ele>0</ele>
<time>2026-09-04T07:19:44Z</time>
</trkpt>
<trkpt lat="46.574200000" lon="-72.205340000">
<ele>0</ele>
<time>2026-09-04T07:19:45Z</time>
</trkpt>
<trkpt lat="46.574700000" lon="-72.205360000">
<ele>0</ele>
<time>2026-09-04T07:19:46Z</time>
</trkpt>
<trkpt lat="46.575260000" lon="-72.205470000">
<ele>0</ele>
<time>2026-09-04T07:19:47Z</time>
</trkpt>
<trkpt lat="46.575540000" lon="-72.205540000">
<ele>0</ele>
<time>2026-09-04T07:19:48Z</time>
</trkpt>
<trkpt lat="46.575640000" lon="-72.205510000">
<ele>0</ele>
<time>2026-09-04T07:19:49Z</time>
</trkpt>
<trkpt lat="46.576590000" lon="-72.204010000">
<ele>0</ele>
<time>2026-09-04T07:19:50Z</time>
</trkpt>
<trkpt lat="46.576670000" lon="-72.204120000">
<ele>0</ele>
<time>2026-09-04T07:19:51Z</time>
</trkpt>
<trkpt lat="46.576670000" lon="-72.204120000">
<ele>0</ele>
<time>2026-09-04T07:19:52Z</time>
</trkpt>
<trkpt lat="46.578380000" lon="-72.206480000">
<ele>0</ele>
<time>2026-09-04T07:19:53Z</time>
</trkpt>
<trkpt lat="46.578760000" lon="-72.206880000">
<ele>0</ele>
<time>2026-09-04T07:19:54Z</time>
</trkpt>
<trkpt lat="46.579150000" lon="-72.207130000">
<ele>0</ele>
<time>2026-09-04T07:19:55Z</time>
</trkpt>
<trkpt lat="46.580080000" lon="-72.207640000">
<ele>0</ele>
<time>2026-09-04T07:19:56Z</time>
</trkpt>
<trkpt lat="46.580550000" lon="-72.208000000">
<ele>0</ele>
<time>2026-09-04T07:19:57Z</time>
</trkpt>
<trkpt lat="46.580690000" lon="-72.208120000">
<ele>0</ele>
<time>2026-09-04T07:19:58Z</time>
</trkpt>
<trkpt lat="46.581220000" lon="-72.208830000">
<ele>0</ele>
<time>2026-09-04T07:19:59Z</time>
</trkpt>
<trkpt lat="46.581580000" lon="-72.209370000">
<ele>0</ele>
<time>2026-09-04T07:20:00Z</time>
</trkpt>
<trkpt lat="46.582350000" lon="-72.210370000">
<ele>0</ele>
<time>2026-09-04T07:20:01Z</time>
</trkpt>
<trkpt lat="46.582700000" lon="-72.210880000">
<ele>0</ele>
<time>2026-09-04T07:20:02Z</time>
</trkpt>
<trkpt lat="46.583860000" lon="-72.212550000">
<ele>0</ele>
<time>2026-09-04T07:20:03Z</time>
</trkpt>
<trkpt lat="46.584970000" lon="-72.214110000">
<ele>0</ele>
<time>2026-09-04T07:20:04Z</time>
</trkpt>
<trkpt lat="46.585260000" lon="-72.214650000">
<ele>0</ele>
<time>2026-09-04T07:20:05Z</time>
</trkpt>
<trkpt lat="46.585260000" lon="-72.214700000">
<ele>0</ele>
<time>2026-09-04T07:20:06Z</time>
</trkpt>
<trkpt lat="46.585420000" lon="-72.215160000">
<ele>0</ele>
<time>2026-09-04T07:20:07Z</time>
</trkpt>
<trkpt lat="46.585530000" lon="-72.215450000">
<ele>0</ele>
<time>2026-09-04T07:20:08Z</time>
</trkpt>
<trkpt lat="46.585710000" lon="-72.216190000">
<ele>0</ele>
<time>2026-09-04T07:20:09Z</time>
</trkpt>
<trkpt lat="46.585860000" lon="-72.216880000">
<ele>0</ele>
<time>2026-09-04T07:20:10Z</time>
</trkpt>
<trkpt lat="46.585920000" lon="-72.217110000">
<ele>0</ele>
<time>2026-09-04T07:20:11Z</time>
</trkpt>
<trkpt lat="46.586170000" lon="-72.217820000">
<ele>0</ele>
<time>2026-09-04T07:20:12Z</time>
</trkpt>
<trkpt lat="46.586250000" lon="-72.218020000">
<ele>0</ele>
<time>2026-09-04T07:20:13Z</time>
</trkpt>
<trkpt lat="46.586460000" lon="-72.218430000">
<ele>0</ele>
<time>2026-09-04T07:20:14Z</time>
</trkpt>
<trkpt lat="46.586710000" lon="-72.218770000">
<ele>0</ele>
<time>2026-09-04T07:20:15Z</time>
</trkpt>
<trkpt lat="46.586990000" lon="-72.219100000">
<ele>0</ele>
<time>2026-09-04T07:20:16Z</time>
</trkpt>
<trkpt lat="46.587460000" lon="-72.219460000">
<ele>0</ele>
<time>2026-09-04T07:20:17Z</time>
</trkpt>
<trkpt lat="46.588660000" lon="-72.220220000">
<ele>0</ele>
<time>2026-09-04T07:20:18Z</time>
</trkpt>
<trkpt lat="46.588990000" lon="-72.220430000">
<ele>0</ele>
<time>2026-09-04T07:20:19Z</time>
</trkpt>
<trkpt lat="46.589620000" lon="-72.220820000">
<ele>0</ele>
<time>2026-09-04T07:20:20Z</time>
</trkpt>
<trkpt lat="46.589900000" lon="-72.220910000">
<ele>0</ele>
<time>2026-09-04T07:20:21Z</time>
</trkpt>
<trkpt lat="46.590430000" lon="-72.220900000">
<ele>0</ele>
<time>2026-09-04T07:20:22Z</time>
</trkpt>
<trkpt lat="46.590700000" lon="-72.220780000">
<ele>0</ele>
<time>2026-09-04T07:20:23Z</time>
</trkpt>
<trkpt lat="46.590940000" lon="-72.220600000">
<ele>0</ele>
<time>2026-09-04T07:20:24Z</time>
</trkpt>
<trkpt lat="46.591070000" lon="-72.220450000">
<ele>0</ele>
<time>2026-09-04T07:20:25Z</time>
</trkpt>
<trkpt lat="46.591200000" lon="-72.220280000">
<ele>0</ele>
<time>2026-09-04T07:20:26Z</time>
</trkpt>
<trkpt lat="46.591950000" lon="-72.219140000">
<ele>0</ele>
<time>2026-09-04T07:20:27Z</time>
</trkpt>
<trkpt lat="46.592440000" lon="-72.218380000">
<ele>0</ele>
<time>2026-09-04T07:20:28Z</time>
</trkpt>
<trkpt lat="46.594260000" lon="-72.215490000">
<ele>0</ele>
<time>2026-09-04T07:20:29Z</time>
</trkpt>
<trkpt lat="46.595690000" lon="-72.213130000">
<ele>0</ele>
<time>2026-09-04T07:20:30Z</time>
</trkpt>
<trkpt lat="46.597600000" lon="-72.209990000">
<ele>0</ele>
<time>2026-09-04T07:20:31Z</time>
</trkpt>
<trkpt lat="46.598920000" lon="-72.207890000">
<ele>0</ele>
<time>2026-09-04T07:20:32Z</time>
</trkpt>
<trkpt lat="46.601300000" lon="-72.204230000">
<ele>0</ele>
<time>2026-09-04T07:20:33Z</time>
</trkpt>
<trkpt lat="46.601630000" lon="-72.203790000">
<ele>0</ele>
<time>2026-09-04T07:20:34Z</time>
</trkpt>
<trkpt lat="46.601980000" lon="-72.203480000">
<ele>0</ele>
<time>2026-09-04T07:20:35Z</time>
</trkpt>
<trkpt lat="46.602470000" lon="-72.203270000">
<ele>0</ele>
<time>2026-09-04T07:20:36Z</time>
</trkpt>
<trkpt lat="46.604990000" lon="-72.203500000">
<ele>0</ele>
<time>2026-09-04T07:20:37Z</time>
</trkpt>
<trkpt lat="46.605250000" lon="-72.203610000">
<ele>0</ele>
<time>2026-09-04T07:20:38Z</time>
</trkpt>
<trkpt lat="46.605480000" lon="-72.203810000">
<ele>0</ele>
<time>2026-09-04T07:20:39Z</time>
</trkpt>
<trkpt lat="46.605630000" lon="-72.203940000">
<ele>0</ele>
<time>2026-09-04T07:20:40Z</time>
</trkpt>
<trkpt lat="46.606050000" lon="-72.204460000">
<ele>0</ele>
<time>2026-09-04T07:20:41Z</time>
</trkpt>
<trkpt lat="46.606300000" lon="-72.204810000">
<ele>0</ele>
<time>2026-09-04T07:20:42Z</time>
</trkpt>
<trkpt lat="46.606550000" lon="-72.205160000">
<ele>0</ele>
<time>2026-09-04T07:20:43Z</time>
</trkpt>
<trkpt lat="46.606790000" lon="-72.205430000">
<ele>0</ele>
<time>2026-09-04T07:20:44Z</time>
</trkpt>
<trkpt lat="46.606980000" lon="-72.205590000">
<ele>0</ele>
<time>2026-09-04T07:20:45Z</time>
</trkpt>
<trkpt lat="46.607590000" lon="-72.205750000">
<ele>0</ele>
<time>2026-09-04T07:20:46Z</time>
</trkpt>
<trkpt lat="46.608400000" lon="-72.205530000">
<ele>0</ele>
<time>2026-09-04T07:20:47Z</time>
</trkpt>
<trkpt lat="46.610160000" lon="-72.204820000">
<ele>0</ele>
<time>2026-09-04T07:20:48Z</time>
</trkpt>
<trkpt lat="46.610860000" lon="-72.204570000">
<ele>0</ele>
<time>2026-09-04T07:20:49Z</time>
</trkpt>
<trkpt lat="46.611030000" lon="-72.204520000">
<ele>0</ele>
<time>2026-09-04T07:20:50Z</time>
</trkpt>
<trkpt lat="46.611490000" lon="-72.204390000">
<ele>0</ele>
<time>2026-09-04T07:20:51Z</time>
</trkpt>
<trkpt lat="46.612990000" lon="-72.204080000">
<ele>0</ele>
<time>2026-09-04T07:20:52Z</time>
</trkpt>
<trkpt lat="46.614260000" lon="-72.203780000">
<ele>0</ele>
<time>2026-09-04T07:20:53Z</time>
</trkpt>
<trkpt lat="46.615040000" lon="-72.203530000">
<ele>0</ele>
<time>2026-09-04T07:20:54Z</time>
</trkpt>
<trkpt lat="46.615110000" lon="-72.203490000">
<ele>0</ele>
<time>2026-09-04T07:20:55Z</time>
</trkpt>
<trkpt lat="46.615620000" lon="-72.203170000">
<ele>0</ele>
<time>2026-09-04T07:20:56Z</time>
</trkpt>
<trkpt lat="46.615950000" lon="-72.203030000">
<ele>0</ele>
<time>2026-09-04T07:20:57Z</time>
</trkpt>
<trkpt lat="46.616810000" lon="-72.202650000">
<ele>0</ele>
<time>2026-09-04T07:20:58Z</time>
</trkpt>
<trkpt lat="46.617340000" lon="-72.202530000">
<ele>0</ele>
<time>2026-09-04T07:20:59Z</time>
</trkpt>
<trkpt lat="46.617700000" lon="-72.202550000">
<ele>0</ele>
<time>2026-09-04T07:21:00Z</time>
</trkpt>
<trkpt lat="46.617870000" lon="-72.202570000">
<ele>0</ele>
<time>2026-09-04T07:21:01Z</time>
</trkpt>
<trkpt lat="46.618220000" lon="-72.202750000">
<ele>0</ele>
<time>2026-09-04T07:21:02Z</time>
</trkpt>
<trkpt lat="46.618660000" lon="-72.202970000">
<ele>0</ele>
<time>2026-09-04T07:21:03Z</time>
</trkpt>
<trkpt lat="46.618880000" lon="-72.203140000">
<ele>0</ele>
<time>2026-09-04T07:21:04Z</time>
</trkpt>
<trkpt lat="46.619850000" lon="-72.203840000">
<ele>0</ele>
<time>2026-09-04T07:21:05Z</time>
</trkpt>
<trkpt lat="46.619980000" lon="-72.203920000">
<ele>0</ele>
<time>2026-09-04T07:21:06Z</time>
</trkpt>
<trkpt lat="46.620350000" lon="-72.204120000">
<ele>0</ele>
<time>2026-09-04T07:21:07Z</time>
</trkpt>
<trkpt lat="46.620720000" lon="-72.204300000">
<ele>0</ele>
<time>2026-09-04T07:21:08Z</time>
</trkpt>
<trkpt lat="46.621020000" lon="-72.204410000">
<ele>0</ele>
<time>2026-09-04T07:21:09Z</time>
</trkpt>
<trkpt lat="46.621450000" lon="-72.204550000">
<ele>0</ele>
<time>2026-09-04T07:21:10Z</time>
</trkpt>
<trkpt lat="46.621830000" lon="-72.204640000">
<ele>0</ele>
<time>2026-09-04T07:21:11Z</time>
</trkpt>
<trkpt lat="46.622640000" lon="-72.204720000">
<ele>0</ele>
<time>2026-09-04T07:21:12Z</time>
</trkpt>
<trkpt lat="46.622830000" lon="-72.204730000">
<ele>0</ele>
<time>2026-09-04T07:21:13Z</time>
</trkpt>
<trkpt lat="46.623460000" lon="-72.204630000">
<ele>0</ele>
<time>2026-09-04T07:21:14Z</time>
</trkpt>
<trkpt lat="46.623710000" lon="-72.204530000">
<ele>0</ele>
<time>2026-09-04T07:21:15Z</time>
</trkpt>
<trkpt lat="46.624040000" lon="-72.204350000">
<ele>0</ele>
<time>2026-09-04T07:21:16Z</time>
</trkpt>
<trkpt lat="46.624450000" lon="-72.204060000">
<ele>0</ele>
<time>2026-09-04T07:21:17Z</time>
</trkpt>
<trkpt lat="46.624660000" lon="-72.203820000">
<ele>0</ele>
<time>2026-09-04T07:21:18Z</time>
</trkpt>
<trkpt lat="46.624790000" lon="-72.203640000">
<ele>0</ele>
<time>2026-09-04T07:21:19Z</time>
</trkpt>
<trkpt lat="46.625080000" lon="-72.203210000">
<ele>0</ele>
<time>2026-09-04T07:21:20Z</time>
</trkpt>
<trkpt lat="46.625290000" lon="-72.202790000">
<ele>0</ele>
<time>2026-09-04T07:21:21Z</time>
</trkpt>
<trkpt lat="46.625720000" lon="-72.201430000">
<ele>0</ele>
<time>2026-09-04T07:21:22Z</time>
</trkpt>
<trkpt lat="46.625870000" lon="-72.200950000">
<ele>0</ele>
<time>2026-09-04T07:21:23Z</time>
</trkpt>
<trkpt lat="46.625980000" lon="-72.200470000">
<ele>0</ele>
<time>2026-09-04T07:21:24Z</time>
</trkpt>
<trkpt lat="46.626150000" lon="-72.199170000">
<ele>0</ele>
<time>2026-09-04T07:21:25Z</time>
</trkpt>
<trkpt lat="46.626190000" lon="-72.198860000">
<ele>0</ele>
<time>2026-09-04T07:21:26Z</time>
</trkpt>
<trkpt lat="46.626220000" lon="-72.198130000">
<ele>0</ele>
<time>2026-09-04T07:21:27Z</time>
</trkpt>
<trkpt lat="46.626300000" lon="-72.196280000">
<ele>0</ele>
<time>2026-09-04T07:21:28Z</time>
</trkpt>
<trkpt lat="46.626350000" lon="-72.195850000">
<ele>0</ele>
<time>2026-09-04T07:21:29Z</time>
</trkpt>
<trkpt lat="46.626540000" lon="-72.195040000">
<ele>0</ele>
<time>2026-09-04T07:21:30Z</time>
</trkpt>
<trkpt lat="46.626810000" lon="-72.194070000">
<ele>0</ele>
<time>2026-09-04T07:21:31Z</time>
</trkpt>
<trkpt lat="46.626980000" lon="-72.193060000">
<ele>0</ele>
<time>2026-09-04T07:21:32Z</time>
</trkpt>
<trkpt lat="46.627000000" lon="-72.192800000">
<ele>0</ele>
<time>2026-09-04T07:21:33Z</time>
</trkpt>
<trkpt lat="46.627130000" lon="-72.189450000">
<ele>0</ele>
<time>2026-09-04T07:21:34Z</time>
</trkpt>
<trkpt lat="46.627360000" lon="-72.187860000">
<ele>0</ele>
<time>2026-09-04T07:21:35Z</time>
</trkpt>
<trkpt lat="46.627880000" lon="-72.185080000">
<ele>0</ele>
<time>2026-09-04T07:21:36Z</time>
</trkpt>
<trkpt lat="46.628070000" lon="-72.184020000">
<ele>0</ele>
<time>2026-09-04T07:21:37Z</time>
</trkpt>
<trkpt lat="46.628200000" lon="-72.183580000">
<ele>0</ele>
<time>2026-09-04T07:21:38Z</time>
</trkpt>
<trkpt lat="46.628290000" lon="-72.183260000">
<ele>0</ele>
<time>2026-09-04T07:21:39Z</time>
</trkpt>
<trkpt lat="46.628590000" lon="-72.182570000">
<ele>0</ele>
<time>2026-09-04T07:21:40Z</time>
</trkpt>
<trkpt lat="46.629430000" lon="-72.181010000">
<ele>0</ele>
<time>2026-09-04T07:21:41Z</time>
</trkpt>
<trkpt lat="46.629790000" lon="-72.180230000">
<ele>0</ele>
<time>2026-09-04T07:21:42Z</time>
</trkpt>
<trkpt lat="46.629980000" lon="-72.179710000">
<ele>0</ele>
<time>2026-09-04T07:21:43Z</time>
</trkpt>
<trkpt lat="46.630270000" lon="-72.178760000">
<ele>0</ele>
<time>2026-09-04T07:21:44Z</time>
</trkpt>
<trkpt lat="46.630340000" lon="-72.178510000">
<ele>0</ele>
<time>2026-09-04T07:21:45Z</time>
</trkpt>
<trkpt lat="46.630570000" lon="-72.177460000">
<ele>0</ele>
<time>2026-09-04T07:21:46Z</time>
</trkpt>
<trkpt lat="46.630730000" lon="-72.176380000">
<ele>0</ele>
<time>2026-09-04T07:21:47Z</time>
</trkpt>
<trkpt lat="46.630870000" lon="-72.174940000">
<ele>0</ele>
<time>2026-09-04T07:21:48Z</time>
</trkpt>
<trkpt lat="46.630940000" lon="-72.174420000">
<ele>0</ele>
<time>2026-09-04T07:21:49Z</time>
</trkpt>
<trkpt lat="46.631020000" lon="-72.173910000">
<ele>0</ele>
<time>2026-09-04T07:21:50Z</time>
</trkpt>
<trkpt lat="46.631210000" lon="-72.173150000">
<ele>0</ele>
<time>2026-09-04T07:21:51Z</time>
</trkpt>
<trkpt lat="46.631310000" lon="-72.172840000">
<ele>0</ele>
<time>2026-09-04T07:21:52Z</time>
</trkpt>
<trkpt lat="46.631850000" lon="-72.171340000">
<ele>0</ele>
<time>2026-09-04T07:21:53Z</time>
</trkpt>
<trkpt lat="46.632060000" lon="-72.170740000">
<ele>0</ele>
<time>2026-09-04T07:21:54Z</time>
</trkpt>
<trkpt lat="46.632410000" lon="-72.169590000">
<ele>0</ele>
<time>2026-09-04T07:21:55Z</time>
</trkpt>
<trkpt lat="46.632800000" lon="-72.168130000">
<ele>0</ele>
<time>2026-09-04T07:21:56Z</time>
</trkpt>
<trkpt lat="46.632980000" lon="-72.167460000">
<ele>0</ele>
<time>2026-09-04T07:21:57Z</time>
</trkpt>
<trkpt lat="46.633350000" lon="-72.166340000">
<ele>0</ele>
<time>2026-09-04T07:21:58Z</time>
</trkpt>
<trkpt lat="46.633620000" lon="-72.165660000">
<ele>0</ele>
<time>2026-09-04T07:21:59Z</time>
</trkpt>
<trkpt lat="46.633790000" lon="-72.165270000">
<ele>0</ele>
<time>2026-09-04T07:22:00Z</time>
</trkpt>
<trkpt lat="46.634150000" lon="-72.164410000">
<ele>0</ele>
<time>2026-09-04T07:22:01Z</time>
</trkpt>
<trkpt lat="46.634520000" lon="-72.163270000">
<ele>0</ele>
<time>2026-09-04T07:22:02Z</time>
</trkpt>
<trkpt lat="46.635200000" lon="-72.160810000">
<ele>0</ele>
<time>2026-09-04T07:22:03Z</time>
</trkpt>
<trkpt lat="46.635480000" lon="-72.160130000">
<ele>0</ele>
<time>2026-09-04T07:22:04Z</time>
</trkpt>
<trkpt lat="46.635830000" lon="-72.159380000">
<ele>0</ele>
<time>2026-09-04T07:22:05Z</time>
</trkpt>
<trkpt lat="46.637220000" lon="-72.156570000">
<ele>0</ele>
<time>2026-09-04T07:22:06Z</time>
</trkpt>
<trkpt lat="46.638260000" lon="-72.154520000">
<ele>0</ele>
<time>2026-09-04T07:22:07Z</time>
</trkpt>
<trkpt lat="46.638550000" lon="-72.153920000">
<ele>0</ele>
<time>2026-09-04T07:22:08Z</time>
</trkpt>
<trkpt lat="46.638680000" lon="-72.153520000">
<ele>0</ele>
<time>2026-09-04T07:22:09Z</time>
</trkpt>
<trkpt lat="46.638750000" lon="-72.153230000">
<ele>0</ele>
<time>2026-09-04T07:22:10Z</time>
</trkpt>
<trkpt lat="46.638810000" lon="-72.152820000">
<ele>0</ele>
<time>2026-09-04T07:22:11Z</time>
</trkpt>
<trkpt lat="46.638770000" lon="-72.151400000">
<ele>0</ele>
<time>2026-09-04T07:22:12Z</time>
</trkpt>
<trkpt lat="46.638760000" lon="-72.150700000">
<ele>0</ele>
<time>2026-09-04T07:22:13Z</time>
</trkpt>
<trkpt lat="46.638790000" lon="-72.149100000">
<ele>0</ele>
<time>2026-09-04T07:22:14Z</time>
</trkpt>
<trkpt lat="46.638860000" lon="-72.148640000">
<ele>0</ele>
<time>2026-09-04T07:22:15Z</time>
</trkpt>
<trkpt lat="46.639020000" lon="-72.148000000">
<ele>0</ele>
<time>2026-09-04T07:22:16Z</time>
</trkpt>
<trkpt lat="46.639220000" lon="-72.147440000">
<ele>0</ele>
<time>2026-09-04T07:22:17Z</time>
</trkpt>
<trkpt lat="46.639370000" lon="-72.147130000">
<ele>0</ele>
<time>2026-09-04T07:22:18Z</time>
</trkpt>
<trkpt lat="46.639640000" lon="-72.146580000">
<ele>0</ele>
<time>2026-09-04T07:22:19Z</time>
</trkpt>
<trkpt lat="46.639880000" lon="-72.146220000">
<ele>0</ele>
<time>2026-09-04T07:22:20Z</time>
</trkpt>
<trkpt lat="46.640020000" lon="-72.146040000">
<ele>0</ele>
<time>2026-09-04T07:22:21Z</time>
</trkpt>
<trkpt lat="46.640320000" lon="-72.145690000">
<ele>0</ele>
<time>2026-09-04T07:22:22Z</time>
</trkpt>
<trkpt lat="46.640670000" lon="-72.145390000">
<ele>0</ele>
<time>2026-09-04T07:22:23Z</time>
</trkpt>
<trkpt lat="46.641020000" lon="-72.145110000">
<ele>0</ele>
<time>2026-09-04T07:22:24Z</time>
</trkpt>
<trkpt lat="46.641270000" lon="-72.144890000">
<ele>0</ele>
<time>2026-09-04T07:22:25Z</time>
</trkpt>
<trkpt lat="46.641660000" lon="-72.144480000">
<ele>0</ele>
<time>2026-09-04T07:22:26Z</time>
</trkpt>
<trkpt lat="46.641970000" lon="-72.144050000">
<ele>0</ele>
<time>2026-09-04T07:22:27Z</time>
</trkpt>
<trkpt lat="46.642530000" lon="-72.143170000">
<ele>0</ele>
<time>2026-09-04T07:22:28Z</time>
</trkpt>
<trkpt lat="46.642930000" lon="-72.142550000">
<ele>0</ele>
<time>2026-09-04T07:22:29Z</time>
</trkpt>
<trkpt lat="46.643220000" lon="-72.142240000">
<ele>0</ele>
<time>2026-09-04T07:22:30Z</time>
</trkpt>
<trkpt lat="46.643450000" lon="-72.142030000">
<ele>0</ele>
<time>2026-09-04T07:22:31Z</time>
</trkpt>
<trkpt lat="46.644140000" lon="-72.141460000">
<ele>0</ele>
<time>2026-09-04T07:22:32Z</time>
</trkpt>
<trkpt lat="46.644350000" lon="-72.141280000">
<ele>0</ele>
<time>2026-09-04T07:22:33Z</time>
</trkpt>
<trkpt lat="46.644520000" lon="-72.141110000">
<ele>0</ele>
<time>2026-09-04T07:22:34Z</time>
</trkpt>
<trkpt lat="46.644860000" lon="-72.140700000">
<ele>0</ele>
<time>2026-09-04T07:22:35Z</time>
</trkpt>
<trkpt lat="46.645150000" lon="-72.140320000">
<ele>0</ele>
<time>2026-09-04T07:22:36Z</time>
</trkpt>
<trkpt lat="46.645560000" lon="-72.139870000">
<ele>0</ele>
<time>2026-09-04T07:22:37Z</time>
</trkpt>
<trkpt lat="46.645870000" lon="-72.139600000">
<ele>0</ele>
<time>2026-09-04T07:22:38Z</time>
</trkpt>
<trkpt lat="46.646030000" lon="-72.139490000">
<ele>0</ele>
<time>2026-09-04T07:22:39Z</time>
</trkpt>
<trkpt lat="46.646630000" lon="-72.139170000">
<ele>0</ele>
<time>2026-09-04T07:22:40Z</time>
</trkpt>
<trkpt lat="46.646880000" lon="-72.139090000">
<ele>0</ele>
<time>2026-09-04T07:22:41Z</time>
</trkpt>
<trkpt lat="46.647230000" lon="-72.139010000">
<ele>0</ele>
<time>2026-09-04T07:22:42Z</time>
</trkpt>
<trkpt lat="46.647600000" lon="-72.138960000">
<ele>0</ele>
<time>2026-09-04T07:22:43Z</time>
</trkpt>
<trkpt lat="46.647800000" lon="-72.138970000">
<ele>0</ele>
<time>2026-09-04T07:22:44Z</time>
</trkpt>
<trkpt lat="46.648130000" lon="-72.139020000">
<ele>0</ele>
<time>2026-09-04T07:22:45Z</time>
</trkpt>
<trkpt lat="46.648480000" lon="-72.139130000">
<ele>0</ele>
<time>2026-09-04T07:22:46Z</time>
</trkpt>
<trkpt lat="46.649330000" lon="-72.139570000">
<ele>0</ele>
<time>2026-09-04T07:22:47Z</time>
</trkpt>
<trkpt lat="46.650020000" lon="-72.139900000">
<ele>0</ele>
<time>2026-09-04T07:22:48Z</time>
</trkpt>
<trkpt lat="46.650300000" lon="-72.140010000">
<ele>0</ele>
<time>2026-09-04T07:22:49Z</time>
</trkpt>
<trkpt lat="46.650660000" lon="-72.140090000">
<ele>0</ele>
<time>2026-09-04T07:22:50Z</time>
</trkpt>
<trkpt lat="46.650960000" lon="-72.140130000">
<ele>0</ele>
<time>2026-09-04T07:22:51Z</time>
</trkpt>
<trkpt lat="46.651240000" lon="-72.140100000">
<ele>0</ele>
<time>2026-09-04T07:22:52Z</time>
</trkpt>
<trkpt lat="46.651430000" lon="-72.140040000">
<ele>0</ele>
<time>2026-09-04T07:22:53Z</time>
</trkpt>
<trkpt lat="46.651890000" lon="-72.139810000">
<ele>0</ele>
<time>2026-09-04T07:22:54Z</time>
</trkpt>
<trkpt lat="46.652350000" lon="-72.139610000">
<ele>0</ele>
<time>2026-09-04T07:22:55Z</time>
</trkpt>
<trkpt lat="46.652660000" lon="-72.139470000">
<ele>0</ele>
<time>2026-09-04T07:22:56Z</time>
</trkpt>
<trkpt lat="46.653110000" lon="-72.139220000">
<ele>0</ele>
<time>2026-09-04T07:22:57Z</time>
</trkpt>
<trkpt lat="46.653620000" lon="-72.138860000">
<ele>0</ele>
<time>2026-09-04T07:22:58Z</time>
</trkpt>
<trkpt lat="46.654120000" lon="-72.138580000">
<ele>0</ele>
<time>2026-09-04T07:22:59Z</time>
</trkpt>
<trkpt lat="46.654790000" lon="-72.138220000">
<ele>0</ele>
<time>2026-09-04T07:23:00Z</time>
</trkpt>
<trkpt lat="46.655130000" lon="-72.138000000">
<ele>0</ele>
<time>2026-09-04T07:23:01Z</time>
</trkpt>
<trkpt lat="46.655160000" lon="-72.138070000">
<ele>0</ele>
<time>2026-09-04T07:23:02Z</time>
</trkpt>
<trkpt lat="46.655710000" lon="-72.139200000">
<ele>0</ele>
<time>2026-09-04T07:23:03Z</time>
</trkpt>
<trkpt lat="46.655870000" lon="-72.139520000">
<ele>0</ele>
<time>2026-09-04T07:23:04Z</time>
</trkpt>
<trkpt lat="46.655980000" lon="-72.139420000">
<ele>0</ele>
<time>2026-09-04T07:23:05Z</time>
</trkpt>
<trkpt lat="46.656150000" lon="-72.139180000">
<ele>0</ele>
<time>2026-09-04T07:23:06Z</time>
</trkpt>
<trkpt lat="46.656170000" lon="-72.139150000">
<ele>0</ele>
<time>2026-09-04T07:23:07Z</time>
</trkpt>
<trkpt lat="46.656150000" lon="-72.139130000">
<ele>0</ele>
<time>2026-09-04T07:23:08Z</time>
</trkpt>
<trkpt lat="46.656910000" lon="-72.137910000">
<ele>0</ele>
<time>2026-09-04T07:23:09Z</time>
</trkpt>
<trkpt lat="46.657430000" lon="-72.137210000">
<ele>0</ele>
<time>2026-09-04T07:23:10Z</time>
</trkpt>
<trkpt lat="46.657620000" lon="-72.136850000">
<ele>0</ele>
<time>2026-09-04T07:23:11Z</time>
</trkpt>
<trkpt lat="46.657790000" lon="-72.136440000">
<ele>0</ele>
<time>2026-09-04T07:23:12Z</time>
</trkpt>
<trkpt lat="46.658160000" lon="-72.135500000">
<ele>0</ele>
<time>2026-09-04T07:23:13Z</time>
</trkpt>
<trkpt lat="46.658450000" lon="-72.134590000">
<ele>0</ele>
<time>2026-09-04T07:23:14Z</time>
</trkpt>
<trkpt lat="46.658620000" lon="-72.134200000">
<ele>0</ele>
<time>2026-09-04T07:23:15Z</time>
</trkpt>
<trkpt lat="46.658920000" lon="-72.133770000">
<ele>0</ele>
<time>2026-09-04T07:23:16Z</time>
</trkpt>
<trkpt lat="46.659240000" lon="-72.133360000">
<ele>0</ele>
<time>2026-09-04T07:23:17Z</time>
</trkpt>
<trkpt lat="46.659180000" lon="-72.133270000">
<ele>0</ele>
<time>2026-09-04T07:23:18Z</time>
</trkpt>
<trkpt lat="46.658890000" lon="-72.132800000">
<ele>0</ele>
<time>2026-09-04T07:23:19Z</time>
</trkpt>
<trkpt lat="46.658870000" lon="-72.132640000">
<ele>0</ele>
<time>2026-09-04T07:23:20Z</time>
</trkpt>
<trkpt lat="46.658940000" lon="-72.132370000">
<ele>0</ele>
<time>2026-09-04T07:23:21Z</time>
</trkpt>
<trkpt lat="46.658990000" lon="-72.132240000">
<ele>0</ele>
<time>2026-09-04T07:23:22Z</time>
</trkpt>
<trkpt lat="46.658990000" lon="-72.132240000">
<ele>0</ele>
<time>2026-09-04T07:23:23Z</time>
</trkpt>
<trkpt lat="46.659120000" lon="-72.131870000">
<ele>0</ele>
<time>2026-09-04T07:23:24Z</time>
</trkpt>
<trkpt lat="46.659280000" lon="-72.131550000">
<ele>0</ele>
<time>2026-09-04T07:23:25Z</time>
</trkpt>
<trkpt lat="46.659460000" lon="-72.131160000">
<ele>0</ele>
<time>2026-09-04T07:23:26Z</time>
</trkpt>
<trkpt lat="46.659550000" lon="-72.130910000">
<ele>0</ele>
<time>2026-09-04T07:23:27Z</time>
</trkpt>
<trkpt lat="46.659740000" lon="-72.130180000">
<ele>0</ele>
<time>2026-09-04T07:23:28Z</time>
</trkpt>
<trkpt lat="46.659970000" lon="-72.129450000">
<ele>0</ele>
<time>2026-09-04T07:23:29Z</time>
</trkpt>
<trkpt lat="46.660160000" lon="-72.128970000">
<ele>0</ele>
<time>2026-09-04T07:23:30Z</time>
</trkpt>
<trkpt lat="46.660240000" lon="-72.128810000">
<ele>0</ele>
<time>2026-09-04T07:23:31Z</time>
</trkpt>
<trkpt lat="46.660570000" lon="-72.128470000">
<ele>0</ele>
<time>2026-09-04T07:23:32Z</time>
</trkpt>
<trkpt lat="46.665980000" lon="-72.122900000">
<ele>0</ele>
<time>2026-09-04T07:23:33Z</time>
</trkpt>
<trkpt lat="46.666150000" lon="-72.122650000">
<ele>0</ele>
<time>2026-09-04T07:23:34Z</time>
</trkpt>
<trkpt lat="46.666240000" lon="-72.122450000">
<ele>0</ele>
<time>2026-09-04T07:23:35Z</time>
</trkpt>
<trkpt lat="46.666880000" lon="-72.120990000">
<ele>0</ele>
<time>2026-09-04T07:23:36Z</time>
</trkpt>
<trkpt lat="46.667460000" lon="-72.119540000">
<ele>0</ele>
<time>2026-09-04T07:23:37Z</time>
</trkpt>
<trkpt lat="46.667990000" lon="-72.118360000">
<ele>0</ele>
<time>2026-09-04T07:23:38Z</time>
</trkpt>
<trkpt lat="46.668570000" lon="-72.116770000">
<ele>0</ele>
<time>2026-09-04T07:23:39Z</time>
</trkpt>
<trkpt lat="46.668750000" lon="-72.116100000">
<ele>0</ele>
<time>2026-09-04T07:23:40Z</time>
</trkpt>
<trkpt lat="46.668840000" lon="-72.115330000">
<ele>0</ele>
<time>2026-09-04T07:23:41Z</time>
</trkpt>
<trkpt lat="46.669250000" lon="-72.113060000">
<ele>0</ele>
<time>2026-09-04T07:23:42Z</time>
</trkpt>
<trkpt lat="46.669280000" lon="-72.112680000">
<ele>0</ele>
<time>2026-09-04T07:23:43Z</time>
</trkpt>
<trkpt lat="46.669280000" lon="-72.112210000">
<ele>0</ele>
<time>2026-09-04T07:23:44Z</time>
</trkpt>
<trkpt lat="46.669340000" lon="-72.111580000">
<ele>0</ele>
<time>2026-09-04T07:23:45Z</time>
</trkpt>
<trkpt lat="46.669390000" lon="-72.110210000">
<ele>0</ele>
<time>2026-09-04T07:23:46Z</time>
</trkpt>
<trkpt lat="46.669420000" lon="-72.110180000">
<ele>0</ele>
<time>2026-09-04T07:23:47Z</time>
</trkpt>
<trkpt lat="46.669490000" lon="-72.109870000">
<ele>0</ele>
<time>2026-09-04T07:23:48Z</time>
</trkpt>
<trkpt lat="46.669580000" lon="-72.109610000">
<ele>0</ele>
<time>2026-09-04T07:23:49Z</time>
</trkpt>
<trkpt lat="46.669700000" lon="-72.109380000">
<ele>0</ele>
<time>2026-09-04T07:23:50Z</time>
</trkpt>
<trkpt lat="46.670000000" lon="-72.108960000">
<ele>0</ele>
<time>2026-09-04T07:23:51Z</time>
</trkpt>
<trkpt lat="46.670180000" lon="-72.108780000">
<ele>0</ele>
<time>2026-09-04T07:23:52Z</time>
</trkpt>
<trkpt lat="46.670620000" lon="-72.108480000">
<ele>0</ele>
<time>2026-09-04T07:23:53Z</time>
</trkpt>
<trkpt lat="46.671700000" lon="-72.107860000">
<ele>0</ele>
<time>2026-09-04T07:23:54Z</time>
</trkpt>
<trkpt lat="46.672110000" lon="-72.107760000">
<ele>0</ele>
<time>2026-09-04T07:23:55Z</time>
</trkpt>
<trkpt lat="46.672360000" lon="-72.107750000">
<ele>0</ele>
<time>2026-09-04T07:23:56Z</time>
</trkpt>
<trkpt lat="46.672730000" lon="-72.107810000">
<ele>0</ele>
<time>2026-09-04T07:23:57Z</time>
</trkpt>
<trkpt lat="46.672960000" lon="-72.107910000">
<ele>0</ele>
<time>2026-09-04T07:23:58Z</time>
</trkpt>
<trkpt lat="46.673190000" lon="-72.108010000">
<ele>0</ele>
<time>2026-09-04T07:23:59Z</time>
</trkpt>
<trkpt lat="46.673510000" lon="-72.108260000">
<ele>0</ele>
<time>2026-09-04T07:24:00Z</time>
</trkpt>
<trkpt lat="46.674350000" lon="-72.109320000">
<ele>0</ele>
<time>2026-09-04T07:24:01Z</time>
</trkpt>
<trkpt lat="46.674480000" lon="-72.109400000">
<ele>0</ele>
<time>2026-09-04T07:24:02Z</time>
</trkpt>
<trkpt lat="46.674780000" lon="-72.109050000">
<ele>0</ele>
<time>2026-09-04T07:24:03Z</time>
</trkpt>
<trkpt lat="46.674780000" lon="-72.109050000">
<ele>0</ele>
<time>2026-09-04T07:24:04Z</time>
</trkpt>
<trkpt lat="46.675460000" lon="-72.108240000">
<ele>0</ele>
<time>2026-09-04T07:24:05Z</time>
</trkpt>
<trkpt lat="46.675910000" lon="-72.107800000">
<ele>0</ele>
<time>2026-09-04T07:24:06Z</time>
</trkpt>
<trkpt lat="46.676060000" lon="-72.107650000">
<ele>0</ele>
<time>2026-09-04T07:24:07Z</time>
</trkpt>
<trkpt lat="46.676200000" lon="-72.107540000">
<ele>0</ele>
<time>2026-09-04T07:24:08Z</time>
</trkpt>
<trkpt lat="46.676350000" lon="-72.107380000">
<ele>0</ele>
<time>2026-09-04T07:24:09Z</time>
</trkpt>
<trkpt lat="46.676610000" lon="-72.107010000">
<ele>0</ele>
<time>2026-09-04T07:24:10Z</time>
</trkpt>
<trkpt lat="46.677180000" lon="-72.106200000">
<ele>0</ele>
<time>2026-09-04T07:24:11Z</time>
</trkpt>
<trkpt lat="46.677300000" lon="-72.105910000">
<ele>0</ele>
<time>2026-09-04T07:24:12Z</time>
</trkpt>
<trkpt lat="46.677460000" lon="-72.105020000">
<ele>0</ele>
<time>2026-09-04T07:24:13Z</time>
</trkpt>
<trkpt lat="46.677470000" lon="-72.103810000">
<ele>0</ele>
<time>2026-09-04T07:24:14Z</time>
</trkpt>
<trkpt lat="46.677670000" lon="-72.102940000">
<ele>0</ele>
<time>2026-09-04T07:24:15Z</time>
</trkpt>
<trkpt lat="46.677810000" lon="-72.102480000">
<ele>0</ele>
<time>2026-09-04T07:24:16Z</time>
</trkpt>
<trkpt lat="46.677980000" lon="-72.102090000">
<ele>0</ele>
<time>2026-09-04T07:24:17Z</time>
</trkpt>
<trkpt lat="46.678090000" lon="-72.101880000">
<ele>0</ele>
<time>2026-09-04T07:24:18Z</time>
</trkpt>
<trkpt lat="46.678330000" lon="-72.101530000">
<ele>0</ele>
<time>2026-09-04T07:24:19Z</time>
</trkpt>
<trkpt lat="46.678640000" lon="-72.101220000">
<ele>0</ele>
<time>2026-09-04T07:24:20Z</time>
</trkpt>
<trkpt lat="46.679230000" lon="-72.100610000">
<ele>0</ele>
<time>2026-09-04T07:24:21Z</time>
</trkpt>
<trkpt lat="46.679670000" lon="-72.100160000">
<ele>0</ele>
<time>2026-09-04T07:24:22Z</time>
</trkpt>
<trkpt lat="46.680110000" lon="-72.099710000">
<ele>0</ele>
<time>2026-09-04T07:24:23Z</time>
</trkpt>
<trkpt lat="46.680430000" lon="-72.099450000">
<ele>0</ele>
<time>2026-09-04T07:24:24Z</time>
</trkpt>
<trkpt lat="46.680620000" lon="-72.099330000">
<ele>0</ele>
<time>2026-09-04T07:24:25Z</time>
</trkpt>
<trkpt lat="46.681170000" lon="-72.099070000">
<ele>0</ele>
<time>2026-09-04T07:24:26Z</time>
</trkpt>
<trkpt lat="46.681340000" lon="-72.098990000">
<ele>0</ele>
<time>2026-09-04T07:24:27Z</time>
</trkpt>
<trkpt lat="46.682380000" lon="-72.098560000">
<ele>0</ele>
<time>2026-09-04T07:24:28Z</time>
</trkpt>
<trkpt lat="46.682610000" lon="-72.098490000">
<ele>0</ele>
<time>2026-09-04T07:24:29Z</time>
</trkpt>
<trkpt lat="46.682910000" lon="-72.098460000">
<ele>0</ele>
<time>2026-09-04T07:24:30Z</time>
</trkpt>
<trkpt lat="46.683190000" lon="-72.098510000">
<ele>0</ele>
<time>2026-09-04T07:24:31Z</time>
</trkpt>
<trkpt lat="46.684410000" lon="-72.098770000">
<ele>0</ele>
<time>2026-09-04T07:24:32Z</time>
</trkpt>
<trkpt lat="46.684670000" lon="-72.098880000">
<ele>0</ele>
<time>2026-09-04T07:24:33Z</time>
</trkpt>
<trkpt lat="46.684840000" lon="-72.099030000">
<ele>0</ele>
<time>2026-09-04T07:24:34Z</time>
</trkpt>
<trkpt lat="46.685630000" lon="-72.100040000">
<ele>0</ele>
<time>2026-09-04T07:24:35Z</time>
</trkpt>
<trkpt lat="46.686140000" lon="-72.100790000">
<ele>0</ele>
<time>2026-09-04T07:24:36Z</time>
</trkpt>
<trkpt lat="46.686570000" lon="-72.101320000">
<ele>0</ele>
<time>2026-09-04T07:24:37Z</time>
</trkpt>
<trkpt lat="46.687620000" lon="-72.102740000">
<ele>0</ele>
<time>2026-09-04T07:24:38Z</time>
</trkpt>
<trkpt lat="46.688530000" lon="-72.104010000">
<ele>0</ele>
<time>2026-09-04T07:24:39Z</time>
</trkpt>
<trkpt lat="46.689010000" lon="-72.104630000">
<ele>0</ele>
<time>2026-09-04T07:24:40Z</time>
</trkpt>
<trkpt lat="46.689090000" lon="-72.104650000">
<ele>0</ele>
<time>2026-09-04T07:24:41Z</time>
</trkpt>
<trkpt lat="46.689160000" lon="-72.104620000">
<ele>0</ele>
<time>2026-09-04T07:24:42Z</time>
</trkpt>
<trkpt lat="46.689200000" lon="-72.104580000">
<ele>0</ele>
<time>2026-09-04T07:24:43Z</time>
</trkpt>
<trkpt lat="46.689200000" lon="-72.104580000">
<ele>0</ele>
<time>2026-09-04T07:24:44Z</time>
</trkpt>
<trkpt lat="46.689530000" lon="-72.104300000">
<ele>0</ele>
<time>2026-09-04T07:24:45Z</time>
</trkpt>
<trkpt lat="46.689670000" lon="-72.104180000">
<ele>0</ele>
<time>2026-09-04T07:24:46Z</time>
</trkpt>
<trkpt lat="46.690060000" lon="-72.103930000">
<ele>0</ele>
<time>2026-09-04T07:24:47Z</time>
</trkpt>
<trkpt lat="46.690330000" lon="-72.103690000">
<ele>0</ele>
<time>2026-09-04T07:24:48Z</time>
</trkpt>
<trkpt lat="46.690650000" lon="-72.103470000">
<ele>0</ele>
<time>2026-09-04T07:24:49Z</time>
</trkpt>
<trkpt lat="46.691490000" lon="-72.103020000">
<ele>0</ele>
<time>2026-09-04T07:24:50Z</time>
</trkpt>
<trkpt lat="46.691960000" lon="-72.102760000">
<ele>0</ele>
<time>2026-09-04T07:24:51Z</time>
</trkpt>
<trkpt lat="46.692180000" lon="-72.102690000">
<ele>0</ele>
<time>2026-09-04T07:24:52Z</time>
</trkpt>
<trkpt lat="46.692390000" lon="-72.102560000">
<ele>0</ele>
<time>2026-09-04T07:24:53Z</time>
</trkpt>
<trkpt lat="46.692410000" lon="-72.102570000">
<ele>0</ele>
<time>2026-09-04T07:24:54Z</time>
</trkpt>
<trkpt lat="46.692580000" lon="-72.102460000">
<ele>0</ele>
<time>2026-09-04T07:24:55Z</time>
</trkpt>
<trkpt lat="46.692850000" lon="-72.102350000">
<ele>0</ele>
<time>2026-09-04T07:24:56Z</time>
</trkpt>
<trkpt lat="46.693040000" lon="-72.102310000">
<ele>0</ele>
<time>2026-09-04T07:24:57Z</time>
</trkpt>
<trkpt lat="46.693290000" lon="-72.102170000">
<ele>0</ele>
<time>2026-09-04T07:24:58Z</time>
</trkpt>
<trkpt lat="46.693940000" lon="-72.101970000">
<ele>0</ele>
<time>2026-09-04T07:24:59Z</time>
</trkpt>
<trkpt lat="46.695260000" lon="-72.101340000">
<ele>0</ele>
<time>2026-09-04T07:25:00Z</time>
</trkpt>
<trkpt lat="46.695500000" lon="-72.101210000">
<ele>0</ele>
<time>2026-09-04T07:25:01Z</time>
</trkpt>
<trkpt lat="46.696000000" lon="-72.101020000">
<ele>0</ele>
<time>2026-09-04T07:25:02Z</time>
</trkpt>
<trkpt lat="46.696630000" lon="-72.100690000">
<ele>0</ele>
<time>2026-09-04T07:25:03Z</time>
</trkpt>
<trkpt lat="46.697760000" lon="-72.099680000">
<ele>0</ele>
<time>2026-09-04T07:25:04Z</time>
</trkpt>
<trkpt lat="46.698130000" lon="-72.099320000">
<ele>0</ele>
<time>2026-09-04T07:25:05Z</time>
</trkpt>
<trkpt lat="46.698440000" lon="-72.099060000">
<ele>0</ele>
<time>2026-09-04T07:25:06Z</time>
</trkpt>
<trkpt lat="46.698690000" lon="-72.098810000">
<ele>0</ele>
<time>2026-09-04T07:25:07Z</time>
</trkpt>
<trkpt lat="46.699030000" lon="-72.098480000">
<ele>0</ele>
<time>2026-09-04T07:25:08Z</time>
</trkpt>
<trkpt lat="46.699420000" lon="-72.098190000">
<ele>0</ele>
<time>2026-09-04T07:25:09Z</time>
</trkpt>
<trkpt lat="46.699730000" lon="-72.097960000">
<ele>0</ele>
<time>2026-09-04T07:25:10Z</time>
</trkpt>
<trkpt lat="46.699910000" lon="-72.097870000">
<ele>0</ele>
<time>2026-09-04T07:25:11Z</time>
</trkpt>
<trkpt lat="46.700640000" lon="-72.097470000">
<ele>0</ele>
<time>2026-09-04T07:25:12Z</time>
</trkpt>
<trkpt lat="46.701450000" lon="-72.097110000">
<ele>0</ele>
<time>2026-09-04T07:25:13Z</time>
</trkpt>
<trkpt lat="46.701730000" lon="-72.096990000">
<ele>0</ele>
<time>2026-09-04T07:25:14Z</time>
</trkpt>
<trkpt lat="46.702130000" lon="-72.096950000">
<ele>0</ele>
<time>2026-09-04T07:25:15Z</time>
</trkpt>
<trkpt lat="46.702240000" lon="-72.096900000">
<ele>0</ele>
<time>2026-09-04T07:25:16Z</time>
</trkpt>
<trkpt lat="46.702430000" lon="-72.096870000">
<ele>0</ele>
<time>2026-09-04T07:25:17Z</time>
</trkpt>
<trkpt lat="46.702810000" lon="-72.096860000">
<ele>0</ele>
<time>2026-09-04T07:25:18Z</time>
</trkpt>
<trkpt lat="46.702860000" lon="-72.096830000">
<ele>0</ele>
<time>2026-09-04T07:25:19Z</time>
</trkpt>
<trkpt lat="46.703060000" lon="-72.096750000">
<ele>0</ele>
<time>2026-09-04T07:25:20Z</time>
</trkpt>
<trkpt lat="46.703390000" lon="-72.096700000">
<ele>0</ele>
<time>2026-09-04T07:25:21Z</time>
</trkpt>
<trkpt lat="46.703520000" lon="-72.096690000">
<ele>0</ele>
<time>2026-09-04T07:25:22Z</time>
</trkpt>
<trkpt lat="46.703720000" lon="-72.096610000">
<ele>0</ele>
<time>2026-09-04T07:25:23Z</time>
</trkpt>
<trkpt lat="46.703920000" lon="-72.096560000">
<ele>0</ele>
<time>2026-09-04T07:25:24Z</time>
</trkpt>
<trkpt lat="46.704420000" lon="-72.096250000">
<ele>0</ele>
<time>2026-09-04T07:25:25Z</time>
</trkpt>
<trkpt lat="46.704470000" lon="-72.096220000">
<ele>0</ele>
<time>2026-09-04T07:25:26Z</time>
</trkpt>
<trkpt lat="46.704860000" lon="-72.095800000">
<ele>0</ele>
<time>2026-09-04T07:25:27Z</time>
</trkpt>
<trkpt lat="46.705070000" lon="-72.095480000">
<ele>0</ele>
<time>2026-09-04T07:25:28Z</time>
</trkpt>
<trkpt lat="46.705370000" lon="-72.094840000">
<ele>0</ele>
<time>2026-09-04T07:25:29Z</time>
</trkpt>
<trkpt lat="46.705510000" lon="-72.094380000">
<ele>0</ele>
<time>2026-09-04T07:25:30Z</time>
</trkpt>
<trkpt lat="46.705640000" lon="-72.093720000">
<ele>0</ele>
<time>2026-09-04T07:25:31Z</time>
</trkpt>
<trkpt lat="46.705840000" lon="-72.092500000">
<ele>0</ele>
<time>2026-09-04T07:25:32Z</time>
</trkpt>
<trkpt lat="46.705970000" lon="-72.092080000">
<ele>0</ele>
<time>2026-09-04T07:25:33Z</time>
</trkpt>
<trkpt lat="46.706010000" lon="-72.091850000">
<ele>0</ele>
<time>2026-09-04T07:25:34Z</time>
</trkpt>
<trkpt lat="46.706560000" lon="-72.090390000">
<ele>0</ele>
<time>2026-09-04T07:25:35Z</time>
</trkpt>
<trkpt lat="46.707220000" lon="-72.088830000">
<ele>0</ele>
<time>2026-09-04T07:25:36Z</time>
</trkpt>
<trkpt lat="46.708310000" lon="-72.086110000">
<ele>0</ele>
<time>2026-09-04T07:25:37Z</time>
</trkpt>
<trkpt lat="46.708640000" lon="-72.085510000">
<ele>0</ele>
<time>2026-09-04T07:25:38Z</time>
</trkpt>
<trkpt lat="46.708870000" lon="-72.085220000">
<ele>0</ele>
<time>2026-09-04T07:25:39Z</time>
</trkpt>
<trkpt lat="46.709150000" lon="-72.084960000">
<ele>0</ele>
<time>2026-09-04T07:25:40Z</time>
</trkpt>
<trkpt lat="46.709550000" lon="-72.084650000">
<ele>0</ele>
<time>2026-09-04T07:25:41Z</time>
</trkpt>
<trkpt lat="46.710030000" lon="-72.084290000">
<ele>0</ele>
<time>2026-09-04T07:25:42Z</time>
</trkpt>
<trkpt lat="46.710530000" lon="-72.083910000">
<ele>0</ele>
<time>2026-09-04T07:25:43Z</time>
</trkpt>
<trkpt lat="46.710720000" lon="-72.083680000">
<ele>0</ele>
<time>2026-09-04T07:25:44Z</time>
</trkpt>
<trkpt lat="46.710920000" lon="-72.083360000">
<ele>0</ele>
<time>2026-09-04T07:25:45Z</time>
</trkpt>
<trkpt lat="46.711080000" lon="-72.083190000">
<ele>0</ele>
<time>2026-09-04T07:25:46Z</time>
</trkpt>
<trkpt lat="46.711290000" lon="-72.082850000">
<ele>0</ele>
<time>2026-09-04T07:25:47Z</time>
</trkpt>
<trkpt lat="46.711680000" lon="-72.082310000">
<ele>0</ele>
<time>2026-09-04T07:25:48Z</time>
</trkpt>
<trkpt lat="46.712060000" lon="-72.081770000">
<ele>0</ele>
<time>2026-09-04T07:25:49Z</time>
</trkpt>
<trkpt lat="46.712790000" lon="-72.080820000">
<ele>0</ele>
<time>2026-09-04T07:25:50Z</time>
</trkpt>
<trkpt lat="46.712270000" lon="-72.080070000">
<ele>0</ele>
<time>2026-09-04T07:25:51Z</time>
</trkpt>
<trkpt lat="46.712270000" lon="-72.080070000">
<ele>0</ele>
<time>2026-09-04T07:25:52Z</time>
</trkpt>
<trkpt lat="46.711810000" lon="-72.079420000">
<ele>0</ele>
<time>2026-09-04T07:25:53Z</time>
</trkpt>
<trkpt lat="46.711480000" lon="-72.079040000">
<ele>0</ele>
<time>2026-09-04T07:25:54Z</time>
</trkpt>
<trkpt lat="46.711230000" lon="-72.078810000">
<ele>0</ele>
<time>2026-09-04T07:25:55Z</time>
</trkpt>
<trkpt lat="46.710910000" lon="-72.078570000">
<ele>0</ele>
<time>2026-09-04T07:25:56Z</time>
</trkpt>
<trkpt lat="46.710340000" lon="-72.078260000">
<ele>0</ele>
<time>2026-09-04T07:25:57Z</time>
</trkpt>
<trkpt lat="46.710340000" lon="-72.078260000">
<ele>0</ele>
<time>2026-09-04T07:25:58Z</time>
</trkpt>
<trkpt lat="46.710050000" lon="-72.078100000">
<ele>0</ele>
<time>2026-09-04T07:25:59Z</time>
</trkpt>
<trkpt lat="46.709520000" lon="-72.077690000">
<ele>0</ele>
<time>2026-09-04T07:26:00Z</time>
</trkpt>
<trkpt lat="46.709090000" lon="-72.077330000">
<ele>0</ele>
<time>2026-09-04T07:26:01Z</time>
</trkpt>
<trkpt lat="46.708710000" lon="-72.076960000">
<ele>0</ele>
<time>2026-09-04T07:26:02Z</time>
</trkpt>
<trkpt lat="46.708340000" lon="-72.076460000">
<ele>0</ele>
<time>2026-09-04T07:26:03Z</time>
</trkpt>
<trkpt lat="46.707960000" lon="-72.075750000">
<ele>0</ele>
<time>2026-09-04T07:26:04Z</time>
</trkpt>
<trkpt lat="46.707700000" lon="-72.075270000">
<ele>0</ele>
<time>2026-09-04T07:26:05Z</time>
</trkpt>
<trkpt lat="46.707540000" lon="-72.075040000">
<ele>0</ele>
<time>2026-09-04T07:26:06Z</time>
</trkpt>
<trkpt lat="46.707050000" lon="-72.074420000">
<ele>0</ele>
<time>2026-09-04T07:26:07Z</time>
</trkpt>
<trkpt lat="46.706680000" lon="-72.074030000">
<ele>0</ele>
<time>2026-09-04T07:26:08Z</time>
</trkpt>
<trkpt lat="46.706360000" lon="-72.073820000">
<ele>0</ele>
<time>2026-09-04T07:26:09Z</time>
</trkpt>
<trkpt lat="46.706070000" lon="-72.073680000">
<ele>0</ele>
<time>2026-09-04T07:26:10Z</time>
</trkpt>
<trkpt lat="46.705780000" lon="-72.073620000">
<ele>0</ele>
<time>2026-09-04T07:26:11Z</time>
</trkpt>
<trkpt lat="46.705470000" lon="-72.073570000">
<ele>0</ele>
<time>2026-09-04T07:26:12Z</time>
</trkpt>
<trkpt lat="46.705210000" lon="-72.073600000">
<ele>0</ele>
<time>2026-09-04T07:26:13Z</time>
</trkpt>
<trkpt lat="46.705030000" lon="-72.073630000">
<ele>0</ele>
<time>2026-09-04T07:26:14Z</time>
</trkpt>
<trkpt lat="46.704370000" lon="-72.073900000">
<ele>0</ele>
<time>2026-09-04T07:26:15Z</time>
</trkpt>
<trkpt lat="46.703940000" lon="-72.074140000">
<ele>0</ele>
<time>2026-09-04T07:26:16Z</time>
</trkpt>
<trkpt lat="46.703840000" lon="-72.074230000">
<ele>0</ele>
<time>2026-09-04T07:26:17Z</time>
</trkpt>
<trkpt lat="46.703610000" lon="-72.074440000">
<ele>0</ele>
<time>2026-09-04T07:26:18Z</time>
</trkpt>
<trkpt lat="46.703210000" lon="-72.074900000">
<ele>0</ele>
<time>2026-09-04T07:26:19Z</time>
</trkpt>
<trkpt lat="46.702830000" lon="-72.075310000">
<ele>0</ele>
<time>2026-09-04T07:26:20Z</time>
</trkpt>
<trkpt lat="46.702560000" lon="-72.075520000">
<ele>0</ele>
<time>2026-09-04T07:26:21Z</time>
</trkpt>
<trkpt lat="46.702310000" lon="-72.075580000">
<ele>0</ele>
<time>2026-09-04T07:26:22Z</time>
</trkpt>
<trkpt lat="46.702070000" lon="-72.075580000">
<ele>0</ele>
<time>2026-09-04T07:26:23Z</time>
</trkpt>
<trkpt lat="46.701800000" lon="-72.075440000">
<ele>0</ele>
<time>2026-09-04T07:26:24Z</time>
</trkpt>
<trkpt lat="46.701320000" lon="-72.075040000">
<ele>0</ele>
<time>2026-09-04T07:26:25Z</time>
</trkpt>
<trkpt lat="46.700620000" lon="-72.074330000">
<ele>0</ele>
<time>2026-09-04T07:26:26Z</time>
</trkpt>
<trkpt lat="46.700360000" lon="-72.073910000">
<ele>0</ele>
<time>2026-09-04T07:26:27Z</time>
</trkpt>
<trkpt lat="46.700270000" lon="-72.073730000">
<ele>0</ele>
<time>2026-09-04T07:26:28Z</time>
</trkpt>
<trkpt lat="46.700230000" lon="-72.073510000">
<ele>0</ele>
<time>2026-09-04T07:26:29Z</time>
</trkpt>
<trkpt lat="46.700230000" lon="-72.073510000">
<ele>0</ele>
<time>2026-09-04T07:26:30Z</time>
</trkpt>
<trkpt lat="46.700190000" lon="-72.073350000">
<ele>0</ele>
<time>2026-09-04T07:26:31Z</time>
</trkpt>
<trkpt lat="46.700070000" lon="-72.073080000">
<ele>0</ele>
<time>2026-09-04T07:26:32Z</time>
</trkpt>
<trkpt lat="46.699830000" lon="-72.072710000">
<ele>0</ele>
<time>2026-09-04T07:26:33Z</time>
</trkpt>
<trkpt lat="46.699090000" lon="-72.071690000">
<ele>0</ele>
<time>2026-09-04T07:26:34Z</time>
</trkpt>
<trkpt lat="46.696650000" lon="-72.068310000">
<ele>0</ele>
<time>2026-09-04T07:26:35Z</time>
</trkpt>
<trkpt lat="46.695600000" lon="-72.066870000">
<ele>0</ele>
<time>2026-09-04T07:26:36Z</time>
</trkpt>
<trkpt lat="46.689060000" lon="-72.057740000">
<ele>0</ele>
<time>2026-09-04T07:26:37Z</time>
</trkpt>
<trkpt lat="46.687810000" lon="-72.055970000">
<ele>0</ele>
<time>2026-09-04T07:26:38Z</time>
</trkpt>
<trkpt lat="46.687810000" lon="-72.055970000">
<ele>0</ele>
<time>2026-09-04T07:26:39Z</time>
</trkpt>
<trkpt lat="46.686730000" lon="-72.054470000">
<ele>0</ele>
<time>2026-09-04T07:26:40Z</time>
</trkpt>
<trkpt lat="46.685460000" lon="-72.052680000">
<ele>0</ele>
<time>2026-09-04T07:26:41Z</time>
</trkpt>
<trkpt lat="46.682580000" lon="-72.048720000">
<ele>0</ele>
<time>2026-09-04T07:26:42Z</time>
</trkpt>
<trkpt lat="46.681620000" lon="-72.047360000">
<ele>0</ele>
<time>2026-09-04T07:26:43Z</time>
</trkpt>
<trkpt lat="46.678790000" lon="-72.043430000">
<ele>0</ele>
<time>2026-09-04T07:26:44Z</time>
</trkpt>
<trkpt lat="46.675880000" lon="-72.039400000">
<ele>0</ele>
<time>2026-09-04T07:26:45Z</time>
</trkpt>
<trkpt lat="46.675880000" lon="-72.039400000">
<ele>0</ele>
<time>2026-09-04T07:26:46Z</time>
</trkpt>
<trkpt lat="46.675820000" lon="-72.039330000">
<ele>0</ele>
<time>2026-09-04T07:26:47Z</time>
</trkpt>
<trkpt lat="46.675700000" lon="-72.039240000">
<ele>0</ele>
<time>2026-09-04T07:26:48Z</time>
</trkpt>
<trkpt lat="46.675570000" lon="-72.039210000">
<ele>0</ele>
<time>2026-09-04T07:26:49Z</time>
</trkpt>
<trkpt lat="46.675180000" lon="-72.039350000">
<ele>0</ele>
<time>2026-09-04T07:26:50Z</time>
</trkpt>
<trkpt lat="46.675120000" lon="-72.039250000">
<ele>0</ele>
<time>2026-09-04T07:26:51Z</time>
</trkpt>
<trkpt lat="46.675120000" lon="-72.039250000">
<ele>0</ele>
<time>2026-09-04T07:26:52Z</time>
</trkpt>
<trkpt lat="46.669290000" lon="-72.030620000">
<ele>0</ele>
<time>2026-09-04T07:26:53Z</time>
</trkpt>
<trkpt lat="46.666560000" lon="-72.026600000">
<ele>0</ele>
<time>2026-09-04T07:26:54Z</time>
</trkpt>
<trkpt lat="46.665480000" lon="-72.025000000">
<ele>0</ele>
<time>2026-09-04T07:26:55Z</time>
</trkpt>
<trkpt lat="46.664890000" lon="-72.024090000">
<ele>0</ele>
<time>2026-09-04T07:26:56Z</time>
</trkpt>
<trkpt lat="46.664260000" lon="-72.023180000">
<ele>0</ele>
<time>2026-09-04T07:26:57Z</time>
</trkpt>
<trkpt lat="46.663250000" lon="-72.021680000">
<ele>0</ele>
<time>2026-09-04T07:26:58Z</time>
</trkpt>
<trkpt lat="46.662650000" lon="-72.020780000">
<ele>0</ele>
<time>2026-09-04T07:26:59Z</time>
</trkpt>
<trkpt lat="46.662110000" lon="-72.019990000">
<ele>0</ele>
<time>2026-09-04T07:27:00Z</time>
</trkpt>
<trkpt lat="46.661640000" lon="-72.019390000">
<ele>0</ele>
<time>2026-09-04T07:27:01Z</time>
</trkpt>
<trkpt lat="46.661330000" lon="-72.019070000">
<ele>0</ele>
<time>2026-09-04T07:27:02Z</time>
</trkpt>
<trkpt lat="46.661070000" lon="-72.018840000">
<ele>0</ele>
<time>2026-09-04T07:27:03Z</time>
</trkpt>
<trkpt lat="46.660520000" lon="-72.018470000">
<ele>0</ele>
<time>2026-09-04T07:27:04Z</time>
</trkpt>
<trkpt lat="46.658350000" lon="-72.017310000">
<ele>0</ele>
<time>2026-09-04T07:27:05Z</time>
</trkpt>
<trkpt lat="46.657470000" lon="-72.016820000">
<ele>0</ele>
<time>2026-09-04T07:27:06Z</time>
</trkpt>
<trkpt lat="46.656890000" lon="-72.016420000">
<ele>0</ele>
<time>2026-09-04T07:27:07Z</time>
</trkpt>
<trkpt lat="46.656080000" lon="-72.015760000">
<ele>0</ele>
<time>2026-09-04T07:27:08Z</time>
</trkpt>
<trkpt lat="46.655630000" lon="-72.015360000">
<ele>0</ele>
<time>2026-09-04T07:27:09Z</time>
</trkpt>
<trkpt lat="46.655210000" lon="-72.014920000">
<ele>0</ele>
<time>2026-09-04T07:27:10Z</time>
</trkpt>
<trkpt lat="46.654690000" lon="-72.014350000">
<ele>0</ele>
<time>2026-09-04T07:27:11Z</time>
</trkpt>
<trkpt lat="46.654310000" lon="-72.013890000">
<ele>0</ele>
<time>2026-09-04T07:27:12Z</time>
</trkpt>
<trkpt lat="46.653490000" lon="-72.012790000">
<ele>0</ele>
<time>2026-09-04T07:27:13Z</time>
</trkpt>
<trkpt lat="46.652020000" lon="-72.010800000">
<ele>0</ele>
<time>2026-09-04T07:27:14Z</time>
</trkpt>
<trkpt lat="46.651140000" lon="-72.009590000">
<ele>0</ele>
<time>2026-09-04T07:27:15Z</time>
</trkpt>
<trkpt lat="46.649630000" lon="-72.007560000">
<ele>0</ele>
<time>2026-09-04T07:27:16Z</time>
</trkpt>
<trkpt lat="46.648840000" lon="-72.006520000">
<ele>0</ele>
<time>2026-09-04T07:27:17Z</time>
</trkpt>
<trkpt lat="46.648080000" lon="-72.005470000">
<ele>0</ele>
<time>2026-09-04T07:27:18Z</time>
</trkpt>
<trkpt lat="46.647240000" lon="-72.004320000">
<ele>0</ele>
<time>2026-09-04T07:27:19Z</time>
</trkpt>
<trkpt lat="46.646390000" lon="-72.003140000">
<ele>0</ele>
<time>2026-09-04T07:27:20Z</time>
</trkpt>
<trkpt lat="46.645490000" lon="-72.001930000">
<ele>0</ele>
<time>2026-09-04T07:27:21Z</time>
</trkpt>
<trkpt lat="46.644510000" lon="-72.000840000">
<ele>0</ele>
<time>2026-09-04T07:27:22Z</time>
</trkpt>
<trkpt lat="46.643930000" lon="-72.000250000">
<ele>0</ele>
<time>2026-09-04T07:27:23Z</time>
</trkpt>
<trkpt lat="46.643390000" lon="-71.999690000">
<ele>0</ele>
<time>2026-09-04T07:27:24Z</time>
</trkpt>
<trkpt lat="46.643430000" lon="-71.999620000">
<ele>0</ele>
<time>2026-09-04T07:27:25Z</time>
</trkpt>
<trkpt lat="46.643430000" lon="-71.999620000">
<ele>0</ele>
<time>2026-09-04T07:27:26Z</time>
</trkpt>
<trkpt lat="46.644330000" lon="-71.997980000">
<ele>0</ele>
<time>2026-09-04T07:27:27Z</time>
</trkpt>
<trkpt lat="46.644740000" lon="-71.997150000">
<ele>0</ele>
<time>2026-09-04T07:27:28Z</time>
</trkpt>
<trkpt lat="46.645050000" lon="-71.996530000">
<ele>0</ele>
<time>2026-09-04T07:27:29Z</time>
</trkpt>
<trkpt lat="46.645500000" lon="-71.995760000">
<ele>0</ele>
<time>2026-09-04T07:27:30Z</time>
</trkpt>
<trkpt lat="46.645940000" lon="-71.995040000">
<ele>0</ele>
<time>2026-09-04T07:27:31Z</time>
</trkpt>
<trkpt lat="46.646500000" lon="-71.994260000">
<ele>0</ele>
<time>2026-09-04T07:27:32Z</time>
</trkpt>
<trkpt lat="46.646710000" lon="-71.994030000">
<ele>0</ele>
<time>2026-09-04T07:27:33Z</time>
</trkpt>
<trkpt lat="46.647290000" lon="-71.993480000">
<ele>0</ele>
<time>2026-09-04T07:27:34Z</time>
</trkpt>
<trkpt lat="46.647580000" lon="-71.993270000">
<ele>0</ele>
<time>2026-09-04T07:27:35Z</time>
</trkpt>
<trkpt lat="46.648810000" lon="-71.992640000">
<ele>0</ele>
<time>2026-09-04T07:27:36Z</time>
</trkpt>
<trkpt lat="46.650690000" lon="-71.991710000">
<ele>0</ele>
<time>2026-09-04T07:27:37Z</time>
</trkpt>
<trkpt lat="46.652900000" lon="-71.990640000">
<ele>0</ele>
<time>2026-09-04T07:27:38Z</time>
</trkpt>
<trkpt lat="46.653460000" lon="-71.990290000">
<ele>0</ele>
<time>2026-09-04T07:27:39Z</time>
</trkpt>
<trkpt lat="46.654700000" lon="-71.989430000">
<ele>0</ele>
<time>2026-09-04T07:27:40Z</time>
</trkpt>
<trkpt lat="46.655510000" lon="-71.988860000">
<ele>0</ele>
<time>2026-09-04T07:27:41Z</time>
</trkpt>
<trkpt lat="46.656510000" lon="-71.988260000">
<ele>0</ele>
<time>2026-09-04T07:27:42Z</time>
</trkpt>
<trkpt lat="46.657170000" lon="-71.987860000">
<ele>0</ele>
<time>2026-09-04T07:27:43Z</time>
</trkpt>
<trkpt lat="46.657380000" lon="-71.987730000">
<ele>0</ele>
<time>2026-09-04T07:27:44Z</time>
</trkpt>
<trkpt lat="46.657620000" lon="-71.987630000">
<ele>0</ele>
<time>2026-09-04T07:27:45Z</time>
</trkpt>
<trkpt lat="46.657840000" lon="-71.987580000">
<ele>0</ele>
<time>2026-09-04T07:27:46Z</time>
</trkpt>
<trkpt lat="46.658040000" lon="-71.987560000">
<ele>0</ele>
<time>2026-09-04T07:27:47Z</time>
</trkpt>
<trkpt lat="46.658270000" lon="-71.987550000">
<ele>0</ele>
<time>2026-09-04T07:27:48Z</time>
</trkpt>
<trkpt lat="46.658510000" lon="-71.987580000">
<ele>0</ele>
<time>2026-09-04T07:27:49Z</time>
</trkpt>
<trkpt lat="46.658980000" lon="-71.987630000">
<ele>0</ele>
<time>2026-09-04T07:27:50Z</time>
</trkpt>
<trkpt lat="46.659280000" lon="-71.987660000">
<ele>0</ele>
<time>2026-09-04T07:27:51Z</time>
</trkpt>
<trkpt lat="46.659470000" lon="-71.987650000">
<ele>0</ele>
<time>2026-09-04T07:27:52Z</time>
</trkpt>
<trkpt lat="46.659700000" lon="-71.987600000">
<ele>0</ele>
<time>2026-09-04T07:27:53Z</time>
</trkpt>
<trkpt lat="46.659870000" lon="-71.987560000">
<ele>0</ele>
<time>2026-09-04T07:27:54Z</time>
</trkpt>
<trkpt lat="46.660030000" lon="-71.987480000">
<ele>0</ele>
<time>2026-09-04T07:27:55Z</time>
</trkpt>
<trkpt lat="46.660210000" lon="-71.987370000">
<ele>0</ele>
<time>2026-09-04T07:27:56Z</time>
</trkpt>
<trkpt lat="46.660330000" lon="-71.987300000">
<ele>0</ele>
<time>2026-09-04T07:27:57Z</time>
</trkpt>
<trkpt lat="46.660560000" lon="-71.987090000">
<ele>0</ele>
<time>2026-09-04T07:27:58Z</time>
</trkpt>
<trkpt lat="46.660810000" lon="-71.986800000">
<ele>0</ele>
<time>2026-09-04T07:27:59Z</time>
</trkpt>
<trkpt lat="46.661150000" lon="-71.986310000">
<ele>0</ele>
<time>2026-09-04T07:28:00Z</time>
</trkpt>
<trkpt lat="46.661590000" lon="-71.985500000">
<ele>0</ele>
<time>2026-09-04T07:28:01Z</time>
</trkpt>
<trkpt lat="46.661840000" lon="-71.984820000">
<ele>0</ele>
<time>2026-09-04T07:28:02Z</time>
</trkpt>
<trkpt lat="46.662560000" lon="-71.981810000">
<ele>0</ele>
<time>2026-09-04T07:28:03Z</time>
</trkpt>
<trkpt lat="46.662960000" lon="-71.980060000">
<ele>0</ele>
<time>2026-09-04T07:28:04Z</time>
</trkpt>
<trkpt lat="46.663130000" lon="-71.979100000">
<ele>0</ele>
<time>2026-09-04T07:28:05Z</time>
</trkpt>
<trkpt lat="46.663170000" lon="-71.978840000">
<ele>0</ele>
<time>2026-09-04T07:28:06Z</time>
</trkpt>
<trkpt lat="46.663390000" lon="-71.977330000">
<ele>0</ele>
<time>2026-09-04T07:28:07Z</time>
</trkpt>
<trkpt lat="46.663720000" lon="-71.974420000">
<ele>0</ele>
<time>2026-09-04T07:28:08Z</time>
</trkpt>
<trkpt lat="46.663760000" lon="-71.972620000">
<ele>0</ele>
<time>2026-09-04T07:28:09Z</time>
</trkpt>
<trkpt lat="46.663760000" lon="-71.972230000">
<ele>0</ele>
<time>2026-09-04T07:28:10Z</time>
</trkpt>
<trkpt lat="46.663720000" lon="-71.971180000">
<ele>0</ele>
<time>2026-09-04T07:28:11Z</time>
</trkpt>
<trkpt lat="46.663620000" lon="-71.969880000">
<ele>0</ele>
<time>2026-09-04T07:28:12Z</time>
</trkpt>
<trkpt lat="46.663480000" lon="-71.968520000">
<ele>0</ele>
<time>2026-09-04T07:28:13Z</time>
</trkpt>
<trkpt lat="46.662870000" lon="-71.964460000">
<ele>0</ele>
<time>2026-09-04T07:28:14Z</time>
</trkpt>
<trkpt lat="46.662480000" lon="-71.962200000">
<ele>0</ele>
<time>2026-09-04T07:28:15Z</time>
</trkpt>
<trkpt lat="46.662440000" lon="-71.961750000">
<ele>0</ele>
<time>2026-09-04T07:28:16Z</time>
</trkpt>
<trkpt lat="46.662460000" lon="-71.961420000">
<ele>0</ele>
<time>2026-09-04T07:28:17Z</time>
</trkpt>
<trkpt lat="46.662510000" lon="-71.960670000">
<ele>0</ele>
<time>2026-09-04T07:28:18Z</time>
</trkpt>
<trkpt lat="46.662660000" lon="-71.959340000">
<ele>0</ele>
<time>2026-09-04T07:28:19Z</time>
</trkpt>
<trkpt lat="46.662700000" lon="-71.959050000">
<ele>0</ele>
<time>2026-09-04T07:28:20Z</time>
</trkpt>
<trkpt lat="46.662880000" lon="-71.957990000">
<ele>0</ele>
<time>2026-09-04T07:28:21Z</time>
</trkpt>
<trkpt lat="46.662980000" lon="-71.957570000">
<ele>0</ele>
<time>2026-09-04T07:28:22Z</time>
</trkpt>
<trkpt lat="46.663520000" lon="-71.955380000">
<ele>0</ele>
<time>2026-09-04T07:28:23Z</time>
</trkpt>
<trkpt lat="46.663770000" lon="-71.954400000">
<ele>0</ele>
<time>2026-09-04T07:28:24Z</time>
</trkpt>
<trkpt lat="46.664210000" lon="-71.952680000">
<ele>0</ele>
<time>2026-09-04T07:28:25Z</time>
</trkpt>
<trkpt lat="46.664540000" lon="-71.951680000">
<ele>0</ele>
<time>2026-09-04T07:28:26Z</time>
</trkpt>
<trkpt lat="46.665390000" lon="-71.949440000">
<ele>0</ele>
<time>2026-09-04T07:28:27Z</time>
</trkpt>
<trkpt lat="46.665670000" lon="-71.948760000">
<ele>0</ele>
<time>2026-09-04T07:28:28Z</time>
</trkpt>
<trkpt lat="46.665860000" lon="-71.948320000">
<ele>0</ele>
<time>2026-09-04T07:28:29Z</time>
</trkpt>
<trkpt lat="46.666160000" lon="-71.947730000">
<ele>0</ele>
<time>2026-09-04T07:28:30Z</time>
</trkpt>
<trkpt lat="46.666450000" lon="-71.947340000">
<ele>0</ele>
<time>2026-09-04T07:28:31Z</time>
</trkpt>
<trkpt lat="46.666880000" lon="-71.946870000">
<ele>0</ele>
<time>2026-09-04T07:28:32Z</time>
</trkpt>
<trkpt lat="46.667030000" lon="-71.946710000">
<ele>0</ele>
<time>2026-09-04T07:28:33Z</time>
</trkpt>
<trkpt lat="46.668400000" lon="-71.945210000">
<ele>0</ele>
<time>2026-09-04T07:28:34Z</time>
</trkpt>
<trkpt lat="46.669010000" lon="-71.944590000">
<ele>0</ele>
<time>2026-09-04T07:28:35Z</time>
</trkpt>
<trkpt lat="46.669500000" lon="-71.944030000">
<ele>0</ele>
<time>2026-09-04T07:28:36Z</time>
</trkpt>
<trkpt lat="46.670060000" lon="-71.943370000">
<ele>0</ele>
<time>2026-09-04T07:28:37Z</time>
</trkpt>
<trkpt lat="46.670840000" lon="-71.942350000">
<ele>0</ele>
<time>2026-09-04T07:28:38Z</time>
</trkpt>
<trkpt lat="46.671250000" lon="-71.941760000">
<ele>0</ele>
<time>2026-09-04T07:28:39Z</time>
</trkpt>
<trkpt lat="46.671790000" lon="-71.940920000">
<ele>0</ele>
<time>2026-09-04T07:28:40Z</time>
</trkpt>
<trkpt lat="46.673210000" lon="-71.938860000">
<ele>0</ele>
<time>2026-09-04T07:28:41Z</time>
</trkpt>
<trkpt lat="46.674270000" lon="-71.937290000">
<ele>0</ele>
<time>2026-09-04T07:28:42Z</time>
</trkpt>
<trkpt lat="46.675570000" lon="-71.935340000">
<ele>0</ele>
<time>2026-09-04T07:28:43Z</time>
</trkpt>
<trkpt lat="46.676040000" lon="-71.934670000">
<ele>0</ele>
<time>2026-09-04T07:28:44Z</time>
</trkpt>
<trkpt lat="46.676180000" lon="-71.934500000">
<ele>0</ele>
<time>2026-09-04T07:28:45Z</time>
</trkpt>
<trkpt lat="46.676420000" lon="-71.934250000">
<ele>0</ele>
<time>2026-09-04T07:28:46Z</time>
</trkpt>
<trkpt lat="46.676710000" lon="-71.934040000">
<ele>0</ele>
<time>2026-09-04T07:28:47Z</time>
</trkpt>
<trkpt lat="46.676960000" lon="-71.933900000">
<ele>0</ele>
<time>2026-09-04T07:28:48Z</time>
</trkpt>
<trkpt lat="46.677490000" lon="-71.933670000">
<ele>0</ele>
<time>2026-09-04T07:28:49Z</time>
</trkpt>
<trkpt lat="46.678040000" lon="-71.933440000">
<ele>0</ele>
<time>2026-09-04T07:28:50Z</time>
</trkpt>
<trkpt lat="46.678710000" lon="-71.933190000">
<ele>0</ele>
<time>2026-09-04T07:28:51Z</time>
</trkpt>
<trkpt lat="46.679280000" lon="-71.932890000">
<ele>0</ele>
<time>2026-09-04T07:28:52Z</time>
</trkpt>
<trkpt lat="46.679450000" lon="-71.932780000">
<ele>0</ele>
<time>2026-09-04T07:28:53Z</time>
</trkpt>
<trkpt lat="46.679690000" lon="-71.932530000">
<ele>0</ele>
<time>2026-09-04T07:28:54Z</time>
</trkpt>
<trkpt lat="46.680000000" lon="-71.932160000">
<ele>0</ele>
<time>2026-09-04T07:28:55Z</time>
</trkpt>
<trkpt lat="46.680210000" lon="-71.931860000">
<ele>0</ele>
<time>2026-09-04T07:28:56Z</time>
</trkpt>
<trkpt lat="46.680750000" lon="-71.931010000">
<ele>0</ele>
<time>2026-09-04T07:28:57Z</time>
</trkpt>
<trkpt lat="46.681450000" lon="-71.929940000">
<ele>0</ele>
<time>2026-09-04T07:28:58Z</time>
</trkpt>
<trkpt lat="46.681620000" lon="-71.929650000">
<ele>0</ele>
<time>2026-09-04T07:28:59Z</time>
</trkpt>
<trkpt lat="46.681960000" lon="-71.928950000">
<ele>0</ele>
<time>2026-09-04T07:29:00Z</time>
</trkpt>
<trkpt lat="46.682360000" lon="-71.928370000">
<ele>0</ele>
<time>2026-09-04T07:29:01Z</time>
</trkpt>
<trkpt lat="46.682610000" lon="-71.928060000">
<ele>0</ele>
<time>2026-09-04T07:29:02Z</time>
</trkpt>
<trkpt lat="46.683180000" lon="-71.927470000">
<ele>0</ele>
<time>2026-09-04T07:29:03Z</time>
</trkpt>
<trkpt lat="46.683870000" lon="-71.926880000">
<ele>0</ele>
<time>2026-09-04T07:29:04Z</time>
</trkpt>
<trkpt lat="46.684610000" lon="-71.926320000">
<ele>0</ele>
<time>2026-09-04T07:29:05Z</time>
</trkpt>
<trkpt lat="46.684950000" lon="-71.926130000">
<ele>0</ele>
<time>2026-09-04T07:29:06Z</time>
</trkpt>
<trkpt lat="46.685080000" lon="-71.926040000">
<ele>0</ele>
<time>2026-09-04T07:29:07Z</time>
</trkpt>
<trkpt lat="46.685140000" lon="-71.926030000">
<ele>0</ele>
<time>2026-09-04T07:29:09Z</time>
</trkpt>
<trkpt lat="46.685280000" lon="-71.926010000">
<ele>0</ele>
<time>2026-09-04T07:29:10Z</time>
</trkpt>
<trkpt lat="46.685580000" lon="-71.925970000">
<ele>0</ele>
<time>2026-09-04T07:29:11Z</time>
</trkpt>
<trkpt lat="46.686130000" lon="-71.925950000">
<ele>0</ele>
<time>2026-09-04T07:29:12Z</time>
</trkpt>
<trkpt lat="46.687880000" lon="-71.925790000">
<ele>0</ele>
<time>2026-09-04T07:29:13Z</time>
</trkpt>
<trkpt lat="46.688330000" lon="-71.925750000">
<ele>0</ele>
<time>2026-09-04T07:29:14Z</time>
</trkpt>
<trkpt lat="46.688780000" lon="-71.925750000">
<ele>0</ele>
<time>2026-09-04T07:29:15Z</time>
</trkpt>
<trkpt lat="46.689740000" lon="-71.925740000">
<ele>0</ele>
<time>2026-09-04T07:29:16Z</time>
</trkpt>
<trkpt lat="46.690400000" lon="-71.925740000">
<ele>0</ele>
<time>2026-09-04T07:29:17Z</time>
</trkpt>
<trkpt lat="46.691330000" lon="-71.925780000">
<ele>0</ele>
<time>2026-09-04T07:29:18Z</time>
</trkpt>
<trkpt lat="46.692600000" lon="-71.925840000">
<ele>0</ele>
<time>2026-09-04T07:29:19Z</time>
</trkpt>
<trkpt lat="46.692860000" lon="-71.925820000">
<ele>0</ele>
<time>2026-09-04T07:29:20Z</time>
</trkpt>
<trkpt lat="46.693090000" lon="-71.925750000">
<ele>0</ele>
<time>2026-09-04T07:29:21Z</time>
</trkpt>
<trkpt lat="46.693270000" lon="-71.925700000">
<ele>0</ele>
<time>2026-09-04T07:29:22Z</time>
</trkpt>
<trkpt lat="46.693650000" lon="-71.925520000">
<ele>0</ele>
<time>2026-09-04T07:29:23Z</time>
</trkpt>
<trkpt lat="46.693870000" lon="-71.925430000">
<ele>0</ele>
<time>2026-09-04T07:29:24Z</time>
</trkpt>
<trkpt lat="46.694290000" lon="-71.925210000">
<ele>0</ele>
<time>2026-09-04T07:29:25Z</time>
</trkpt>
<trkpt lat="46.694780000" lon="-71.924880000">
<ele>0</ele>
<time>2026-09-04T07:29:26Z</time>
</trkpt>
<trkpt lat="46.694940000" lon="-71.924750000">
<ele>0</ele>
<time>2026-09-04T07:29:27Z</time>
</trkpt>
<trkpt lat="46.695260000" lon="-71.924450000">
<ele>0</ele>
<time>2026-09-04T07:29:28Z</time>
</trkpt>
<trkpt lat="46.695540000" lon="-71.924080000">
<ele>0</ele>
<time>2026-09-04T07:29:29Z</time>
</trkpt>
<trkpt lat="46.696020000" lon="-71.923370000">
<ele>0</ele>
<time>2026-09-04T07:29:30Z</time>
</trkpt>
<trkpt lat="46.696690000" lon="-71.922330000">
<ele>0</ele>
<time>2026-09-04T07:29:31Z</time>
</trkpt>
<trkpt lat="46.698120000" lon="-71.920050000">
<ele>0</ele>
<time>2026-09-04T07:29:32Z</time>
</trkpt>
<trkpt lat="46.698700000" lon="-71.919170000">
<ele>0</ele>
<time>2026-09-04T07:29:33Z</time>
</trkpt>
<trkpt lat="46.698890000" lon="-71.918850000">
<ele>0</ele>
<time>2026-09-04T07:29:34Z</time>
</trkpt>
<trkpt lat="46.699040000" lon="-71.918530000">
<ele>0</ele>
<time>2026-09-04T07:29:35Z</time>
</trkpt>
<trkpt lat="46.699390000" lon="-71.917910000">
<ele>0</ele>
<time>2026-09-04T07:29:36Z</time>
</trkpt>
<trkpt lat="46.699680000" lon="-71.917270000">
<ele>0</ele>
<time>2026-09-04T07:29:37Z</time>
</trkpt>
<trkpt lat="46.700240000" lon="-71.915920000">
<ele>0</ele>
<time>2026-09-04T07:29:38Z</time>
</trkpt>
<trkpt lat="46.700510000" lon="-71.915240000">
<ele>0</ele>
<time>2026-09-04T07:29:39Z</time>
</trkpt>
<trkpt lat="46.700840000" lon="-71.914450000">
<ele>0</ele>
<time>2026-09-04T07:29:40Z</time>
</trkpt>
<trkpt lat="46.701290000" lon="-71.913250000">
<ele>0</ele>
<time>2026-09-04T07:29:41Z</time>
</trkpt>
<trkpt lat="46.702190000" lon="-71.911040000">
<ele>0</ele>
<time>2026-09-04T07:29:42Z</time>
</trkpt>
<trkpt lat="46.702480000" lon="-71.910180000">
<ele>0</ele>
<time>2026-09-04T07:29:43Z</time>
</trkpt>
<trkpt lat="46.702630000" lon="-71.909300000">
<ele>0</ele>
<time>2026-09-04T07:29:44Z</time>
</trkpt>
<trkpt lat="46.702680000" lon="-71.908800000">
<ele>0</ele>
<time>2026-09-04T07:29:45Z</time>
</trkpt>
<trkpt lat="46.702760000" lon="-71.908020000">
<ele>0</ele>
<time>2026-09-04T07:29:46Z</time>
</trkpt>
<trkpt lat="46.702830000" lon="-71.907280000">
<ele>0</ele>
<time>2026-09-04T07:29:47Z</time>
</trkpt>
<trkpt lat="46.702970000" lon="-71.906560000">
<ele>0</ele>
<time>2026-09-04T07:29:48Z</time>
</trkpt>
<trkpt lat="46.703190000" lon="-71.905850000">
<ele>0</ele>
<time>2026-09-04T07:29:49Z</time>
</trkpt>
<trkpt lat="46.703290000" lon="-71.905630000">
<ele>0</ele>
<time>2026-09-04T07:29:50Z</time>
</trkpt>
<trkpt lat="46.703560000" lon="-71.905110000">
<ele>0</ele>
<time>2026-09-04T07:29:51Z</time>
</trkpt>
<trkpt lat="46.703740000" lon="-71.904790000">
<ele>0</ele>
<time>2026-09-04T07:29:52Z</time>
</trkpt>
<trkpt lat="46.704040000" lon="-71.904410000">
<ele>0</ele>
<time>2026-09-04T07:29:53Z</time>
</trkpt>
<trkpt lat="46.704690000" lon="-71.903550000">
<ele>0</ele>
<time>2026-09-04T07:29:54Z</time>
</trkpt>
<trkpt lat="46.705300000" lon="-71.902750000">
<ele>0</ele>
<time>2026-09-04T07:29:55Z</time>
</trkpt>
<trkpt lat="46.705770000" lon="-71.902280000">
<ele>0</ele>
<time>2026-09-04T07:29:56Z</time>
</trkpt>
<trkpt lat="46.706080000" lon="-71.902020000">
<ele>0</ele>
<time>2026-09-04T07:29:57Z</time>
</trkpt>
<trkpt lat="46.706400000" lon="-71.901840000">
<ele>0</ele>
<time>2026-09-04T07:29:58Z</time>
</trkpt>
<trkpt lat="46.706580000" lon="-71.901730000">
<ele>0</ele>
<time>2026-09-04T07:29:59Z</time>
</trkpt>
<trkpt lat="46.706860000" lon="-71.901630000">
<ele>0</ele>
<time>2026-09-04T07:30:00Z</time>
</trkpt>
<trkpt lat="46.707140000" lon="-71.901540000">
<ele>0</ele>
<time>2026-09-04T07:30:01Z</time>
</trkpt>
<trkpt lat="46.707760000" lon="-71.901460000">
<ele>0</ele>
<time>2026-09-04T07:30:02Z</time>
</trkpt>
<trkpt lat="46.708310000" lon="-71.901430000">
<ele>0</ele>
<time>2026-09-04T07:30:03Z</time>
</trkpt>
<trkpt lat="46.708480000" lon="-71.901400000">
<ele>0</ele>
<time>2026-09-04T07:30:04Z</time>
</trkpt>
<trkpt lat="46.708590000" lon="-71.901380000">
<ele>0</ele>
<time>2026-09-04T07:30:05Z</time>
</trkpt>
<trkpt lat="46.708750000" lon="-71.901400000">
<ele>0</ele>
<time>2026-09-04T07:30:06Z</time>
</trkpt>
<trkpt lat="46.708950000" lon="-71.901340000">
<ele>0</ele>
<time>2026-09-04T07:30:07Z</time>
</trkpt>
<trkpt lat="46.709360000" lon="-71.901110000">
<ele>0</ele>
<time>2026-09-04T07:30:08Z</time>
</trkpt>
<trkpt lat="46.709510000" lon="-71.901020000">
<ele>0</ele>
<time>2026-09-04T07:30:09Z</time>
</trkpt>
<trkpt lat="46.709630000" lon="-71.900900000">
<ele>0</ele>
<time>2026-09-04T07:30:10Z</time>
</trkpt>
<trkpt lat="46.710040000" lon="-71.900470000">
<ele>0</ele>
<time>2026-09-04T07:30:11Z</time>
</trkpt>
<trkpt lat="46.710370000" lon="-71.899900000">
<ele>0</ele>
<time>2026-09-04T07:30:12Z</time>
</trkpt>
<trkpt lat="46.710790000" lon="-71.899080000">
<ele>0</ele>
<time>2026-09-04T07:30:13Z</time>
</trkpt>
<trkpt lat="46.710920000" lon="-71.898760000">
<ele>0</ele>
<time>2026-09-04T07:30:14Z</time>
</trkpt>
<trkpt lat="46.711040000" lon="-71.898350000">
<ele>0</ele>
<time>2026-09-04T07:30:15Z</time>
</trkpt>
<trkpt lat="46.711100000" lon="-71.897870000">
<ele>0</ele>
<time>2026-09-04T07:30:16Z</time>
</trkpt>
<trkpt lat="46.711120000" lon="-71.897500000">
<ele>0</ele>
<time>2026-09-04T07:30:17Z</time>
</trkpt>
<trkpt lat="46.711090000" lon="-71.897000000">
<ele>0</ele>
<time>2026-09-04T07:30:18Z</time>
</trkpt>
<trkpt lat="46.711080000" lon="-71.896330000">
<ele>0</ele>
<time>2026-09-04T07:30:19Z</time>
</trkpt>
<trkpt lat="46.711280000" lon="-71.895300000">
<ele>0</ele>
<time>2026-09-04T07:30:20Z</time>
</trkpt>
<trkpt lat="46.711400000" lon="-71.894590000">
<ele>0</ele>
<time>2026-09-04T07:30:21Z</time>
</trkpt>
<trkpt lat="46.711380000" lon="-71.894540000">
<ele>0</ele>
<time>2026-09-04T07:30:22Z</time>
</trkpt>
<trkpt lat="46.711320000" lon="-71.894260000">
<ele>0</ele>
<time>2026-09-04T07:30:23Z</time>
</trkpt>
<trkpt lat="46.711320000" lon="-71.894260000">
<ele>0</ele>
<time>2026-09-04T07:30:24Z</time>
</trkpt>
<trkpt lat="46.711170000" lon="-71.893470000">
<ele>0</ele>
<time>2026-09-04T07:30:25Z</time>
</trkpt>
<trkpt lat="46.711070000" lon="-71.893160000">
<ele>0</ele>
<time>2026-09-04T07:30:26Z</time>
</trkpt>
<trkpt lat="46.710940000" lon="-71.892960000">
<ele>0</ele>
<time>2026-09-04T07:30:27Z</time>
</trkpt>
<trkpt lat="46.710570000" lon="-71.892540000">
<ele>0</ele>
<time>2026-09-04T07:30:28Z</time>
</trkpt>
<trkpt lat="46.709610000" lon="-71.891760000">
<ele>0</ele>
<time>2026-09-04T07:30:29Z</time>
</trkpt>
<trkpt lat="46.709110000" lon="-71.891320000">
<ele>0</ele>
<time>2026-09-04T07:30:30Z</time>
</trkpt>
<trkpt lat="46.707900000" lon="-71.890740000">
<ele>0</ele>
<time>2026-09-04T07:30:31Z</time>
</trkpt>
<trkpt lat="46.707250000" lon="-71.890350000">
<ele>0</ele>
<time>2026-09-04T07:30:32Z</time>
</trkpt>
<trkpt lat="46.706330000" lon="-71.889860000">
<ele>0</ele>
<time>2026-09-04T07:30:33Z</time>
</trkpt>
<trkpt lat="46.705900000" lon="-71.889690000">
<ele>0</ele>
<time>2026-09-04T07:30:34Z</time>
</trkpt>
<trkpt lat="46.705290000" lon="-71.889570000">
<ele>0</ele>
<time>2026-09-04T07:30:35Z</time>
</trkpt>
<trkpt lat="46.705320000" lon="-71.889370000">
<ele>0</ele>
<time>2026-09-04T07:30:36Z</time>
</trkpt>
<trkpt lat="46.705300000" lon="-71.889120000">
<ele>0</ele>
<time>2026-09-04T07:30:37Z</time>
</trkpt>
<trkpt lat="46.705260000" lon="-71.888880000">
<ele>0</ele>
<time>2026-09-04T07:30:38Z</time>
</trkpt>
<trkpt lat="46.705260000" lon="-71.888880000">
<ele>0</ele>
<time>2026-09-04T07:30:39Z</time>
</trkpt>
<trkpt lat="46.705190000" lon="-71.888710000">
<ele>0</ele>
<time>2026-09-04T07:30:40Z</time>
</trkpt>
<trkpt lat="46.705030000" lon="-71.888420000">
<ele>0</ele>
<time>2026-09-04T07:30:41Z</time>
</trkpt>
<trkpt lat="46.704740000" lon="-71.888140000">
<ele>0</ele>
<time>2026-09-04T07:30:42Z</time>
</trkpt>
<trkpt lat="46.703370000" lon="-71.886940000">
<ele>0</ele>
<time>2026-09-04T07:30:43Z</time>
</trkpt>
<trkpt lat="46.702760000" lon="-71.886460000">
<ele>0</ele>
<time>2026-09-04T07:30:44Z</time>
</trkpt>
<trkpt lat="46.702070000" lon="-71.886040000">
<ele>0</ele>
<time>2026-09-04T07:30:45Z</time>
</trkpt>
<trkpt lat="46.700450000" lon="-71.885320000">
<ele>0</ele>
<time>2026-09-04T07:30:46Z</time>
</trkpt>
<trkpt lat="46.700170000" lon="-71.885280000">
<ele>0</ele>
<time>2026-09-04T07:30:47Z</time>
</trkpt>
<trkpt lat="46.699820000" lon="-71.885300000">
<ele>0</ele>
<time>2026-09-04T07:30:48Z</time>
</trkpt>
<trkpt lat="46.699420000" lon="-71.885380000">
<ele>0</ele>
<time>2026-09-04T07:30:49Z</time>
</trkpt>
<trkpt lat="46.699200000" lon="-71.885450000">
<ele>0</ele>
<time>2026-09-04T07:30:50Z</time>
</trkpt>
<trkpt lat="46.698680000" lon="-71.885630000">
<ele>0</ele>
<time>2026-09-04T07:30:51Z</time>
</trkpt>
<trkpt lat="46.698450000" lon="-71.885690000">
<ele>0</ele>
<time>2026-09-04T07:30:52Z</time>
</trkpt>
<trkpt lat="46.698140000" lon="-71.885680000">
<ele>0</ele>
<time>2026-09-04T07:30:53Z</time>
</trkpt>
<trkpt lat="46.698060000" lon="-71.885670000">
<ele>0</ele>
<time>2026-09-04T07:30:54Z</time>
</trkpt>
<trkpt lat="46.697790000" lon="-71.885570000">
<ele>0</ele>
<time>2026-09-04T07:30:55Z</time>
</trkpt>
<trkpt lat="46.697440000" lon="-71.885440000">
<ele>0</ele>
<time>2026-09-04T07:30:56Z</time>
</trkpt>
<trkpt lat="46.696820000" lon="-71.885210000">
<ele>0</ele>
<time>2026-09-04T07:30:57Z</time>
</trkpt>
<trkpt lat="46.696650000" lon="-71.885110000">
<ele>0</ele>
<time>2026-09-04T07:30:58Z</time>
</trkpt>
<trkpt lat="46.696280000" lon="-71.884780000">
<ele>0</ele>
<time>2026-09-04T07:30:59Z</time>
</trkpt>
<trkpt lat="46.695610000" lon="-71.884190000">
<ele>0</ele>
<time>2026-09-04T07:31:00Z</time>
</trkpt>
<trkpt lat="46.695300000" lon="-71.883920000">
<ele>0</ele>
<time>2026-09-04T07:31:01Z</time>
</trkpt>
<trkpt lat="46.695160000" lon="-71.883910000">
<ele>0</ele>
<time>2026-09-04T07:31:02Z</time>
</trkpt>
<trkpt lat="46.695010000" lon="-71.883980000">
<ele>0</ele>
<time>2026-09-04T07:31:03Z</time>
</trkpt>
<trkpt lat="46.694700000" lon="-71.884070000">
<ele>0</ele>
<time>2026-09-04T07:31:04Z</time>
</trkpt>
<trkpt lat="46.694240000" lon="-71.884090000">
<ele>0</ele>
<time>2026-09-04T07:31:05Z</time>
</trkpt>
<trkpt lat="46.694090000" lon="-71.884050000">
<ele>0</ele>
<time>2026-09-04T07:31:06Z</time>
</trkpt>
<trkpt lat="46.693950000" lon="-71.884060000">
<ele>0</ele>
<time>2026-09-04T07:31:07Z</time>
</trkpt>
<trkpt lat="46.693740000" lon="-71.884000000">
<ele>0</ele>
<time>2026-09-04T07:31:08Z</time>
</trkpt>
<trkpt lat="46.693650000" lon="-71.883940000">
<ele>0</ele>
<time>2026-09-04T07:31:09Z</time>
</trkpt>
<trkpt lat="46.693540000" lon="-71.883840000">
<ele>0</ele>
<time>2026-09-04T07:31:10Z</time>
</trkpt>
<trkpt lat="46.693450000" lon="-71.883700000">
<ele>0</ele>
<time>2026-09-04T07:31:11Z</time>
</trkpt>
<trkpt lat="46.693250000" lon="-71.883210000">
<ele>0</ele>
<time>2026-09-04T07:31:12Z</time>
</trkpt>
<trkpt lat="46.693120000" lon="-71.882970000">
<ele>0</ele>
<time>2026-09-04T07:31:13Z</time>
</trkpt>
<trkpt lat="46.692870000" lon="-71.882620000">
<ele>0</ele>
<time>2026-09-04T07:31:14Z</time>
</trkpt>
<trkpt lat="46.692720000" lon="-71.882510000">
<ele>0</ele>
<time>2026-09-04T07:31:15Z</time>
</trkpt>
<trkpt lat="46.692720000" lon="-71.882510000">
<ele>0</ele>
<time>2026-09-04T07:31:16Z</time>
</trkpt>
<trkpt lat="46.692510000" lon="-71.882370000">
<ele>0</ele>
<time>2026-09-04T07:31:17Z</time>
</trkpt>
<trkpt lat="46.692350000" lon="-71.882210000">
<ele>0</ele>
<time>2026-09-04T07:31:18Z</time>
</trkpt>
<trkpt lat="46.691980000" lon="-71.882030000">
<ele>0</ele>
<time>2026-09-04T07:31:19Z</time>
</trkpt>
<trkpt lat="46.691710000" lon="-71.881930000">
<ele>0</ele>
<time>2026-09-04T07:31:20Z</time>
</trkpt>
<trkpt lat="46.691490000" lon="-71.881890000">
<ele>0</ele>
<time>2026-09-04T07:31:21Z</time>
</trkpt>
<trkpt lat="46.691250000" lon="-71.881880000">
<ele>0</ele>
<time>2026-09-04T07:31:22Z</time>
</trkpt>
<trkpt lat="46.690950000" lon="-71.881930000">
<ele>0</ele>
<time>2026-09-04T07:31:23Z</time>
</trkpt>
<trkpt lat="46.690540000" lon="-71.882010000">
<ele>0</ele>
<time>2026-09-04T07:31:24Z</time>
</trkpt>
<trkpt lat="46.690330000" lon="-71.882100000">
<ele>0</ele>
<time>2026-09-04T07:31:25Z</time>
</trkpt>
<trkpt lat="46.689930000" lon="-71.882400000">
<ele>0</ele>
<time>2026-09-04T07:31:26Z</time>
</trkpt>
<trkpt lat="46.689850000" lon="-71.882460000">
<ele>0</ele>
<time>2026-09-04T07:31:27Z</time>
</trkpt>
<trkpt lat="46.689790000" lon="-71.882560000">
<ele>0</ele>
<time>2026-09-04T07:31:28Z</time>
</trkpt>
<trkpt lat="46.689180000" lon="-71.883530000">
<ele>0</ele>
<time>2026-09-04T07:31:29Z</time>
</trkpt>
<trkpt lat="46.688070000" lon="-71.885340000">
<ele>0</ele>
<time>2026-09-04T07:31:30Z</time>
</trkpt>
<trkpt lat="46.687930000" lon="-71.885700000">
<ele>0</ele>
<time>2026-09-04T07:31:31Z</time>
</trkpt>
<trkpt lat="46.687880000" lon="-71.886030000">
<ele>0</ele>
<time>2026-09-04T07:31:32Z</time>
</trkpt>
<trkpt lat="46.687920000" lon="-71.886530000">
<ele>0</ele>
<time>2026-09-04T07:31:33Z</time>
</trkpt>
<trkpt lat="46.688210000" lon="-71.887010000">
<ele>0</ele>
<time>2026-09-04T07:31:34Z</time>
</trkpt>
<trkpt lat="46.688210000" lon="-71.887020000">
<ele>0</ele>
<time>2026-09-04T07:31:35Z</time>
</trkpt>
<trkpt lat="46.689210000" lon="-71.888300000">
<ele>0</ele>
<time>2026-09-04T07:31:36Z</time>
</trkpt>
<trkpt lat="46.689270000" lon="-71.888360000">
<ele>0</ele>
<time>2026-09-04T07:31:37Z</time>
</trkpt>
<trkpt lat="46.689550000" lon="-71.888730000">
<ele>0</ele>
<time>2026-09-04T07:31:38Z</time>
</trkpt>
<trkpt lat="46.689200000" lon="-71.889210000">
<ele>0</ele>
<time>2026-09-04T07:31:39Z</time>
</trkpt>
<trkpt lat="46.689120000" lon="-71.889330000">
<ele>0</ele>
<time>2026-09-04T07:31:40Z</time>
</trkpt>
<trkpt lat="46.689120000" lon="-71.889330000">
<ele>0</ele>
<time>2026-09-04T07:31:41Z</time>
</trkpt>
<trkpt lat="46.688730000" lon="-71.889850000">
<ele>0</ele>
<time>2026-09-04T07:31:42Z</time>
</trkpt>
<trkpt lat="46.687690000" lon="-71.891450000">
<ele>0</ele>
<time>2026-09-04T07:31:43Z</time>
</trkpt>
<trkpt lat="46.684700000" lon="-71.896330000">
<ele>0</ele>
<time>2026-09-04T07:31:44Z</time>
</trkpt>
<trkpt lat="46.681240000" lon="-71.902040000">
<ele>0</ele>
<time>2026-09-04T07:31:45Z</time>
</trkpt>
<trkpt lat="46.675820000" lon="-71.910930000">
<ele>0</ele>
<time>2026-09-04T07:31:46Z</time>
</trkpt>
<trkpt lat="46.674860000" lon="-71.912460000">
<ele>0</ele>
<time>2026-09-04T07:31:47Z</time>
</trkpt>
<trkpt lat="46.674320000" lon="-71.913240000">
<ele>0</ele>
<time>2026-09-04T07:31:48Z</time>
</trkpt>
<trkpt lat="46.671800000" lon="-71.916400000">
<ele>0</ele>
<time>2026-09-04T07:31:49Z</time>
</trkpt>
<trkpt lat="46.668250000" lon="-71.920820000">
<ele>0</ele>
<time>2026-09-04T07:31:50Z</time>
</trkpt>
<trkpt lat="46.667920000" lon="-71.921200000">
<ele>0</ele>
<time>2026-09-04T07:31:51Z</time>
</trkpt>
<trkpt lat="46.667550000" lon="-71.921560000">
<ele>0</ele>
<time>2026-09-04T07:31:52Z</time>
</trkpt>
<trkpt lat="46.667280000" lon="-71.921770000">
<ele>0</ele>
<time>2026-09-04T07:31:53Z</time>
</trkpt>
<trkpt lat="46.667010000" lon="-71.921950000">
<ele>0</ele>
<time>2026-09-04T07:31:54Z</time>
</trkpt>
<trkpt lat="46.666670000" lon="-71.922100000">
<ele>0</ele>
<time>2026-09-04T07:31:55Z</time>
</trkpt>
<trkpt lat="46.666420000" lon="-71.922200000">
<ele>0</ele>
<time>2026-09-04T07:31:56Z</time>
</trkpt>
<trkpt lat="46.665980000" lon="-71.922310000">
<ele>0</ele>
<time>2026-09-04T07:31:57Z</time>
</trkpt>
<trkpt lat="46.665000000" lon="-71.922430000">
<ele>0</ele>
<time>2026-09-04T07:31:58Z</time>
</trkpt>
<trkpt lat="46.664040000" lon="-71.922520000">
<ele>0</ele>
<time>2026-09-04T07:31:59Z</time>
</trkpt>
<trkpt lat="46.663490000" lon="-71.922600000">
<ele>0</ele>
<time>2026-09-04T07:32:00Z</time>
</trkpt>
<trkpt lat="46.662970000" lon="-71.922710000">
<ele>0</ele>
<time>2026-09-04T07:32:01Z</time>
</trkpt>
<trkpt lat="46.662410000" lon="-71.922850000">
<ele>0</ele>
<time>2026-09-04T07:32:02Z</time>
</trkpt>
<trkpt lat="46.661660000" lon="-71.923080000">
<ele>0</ele>
<time>2026-09-04T07:32:03Z</time>
</trkpt>
<trkpt lat="46.660800000" lon="-71.923420000">
<ele>0</ele>
<time>2026-09-04T07:32:04Z</time>
</trkpt>
<trkpt lat="46.660620000" lon="-71.923500000">
<ele>0</ele>
<time>2026-09-04T07:32:05Z</time>
</trkpt>
<trkpt lat="46.659920000" lon="-71.923850000">
<ele>0</ele>
<time>2026-09-04T07:32:06Z</time>
</trkpt>
<trkpt lat="46.658590000" lon="-71.924550000">
<ele>0</ele>
<time>2026-09-04T07:32:07Z</time>
</trkpt>
<trkpt lat="46.656130000" lon="-71.925830000">
<ele>0</ele>
<time>2026-09-04T07:32:08Z</time>
</trkpt>
<trkpt lat="46.653820000" lon="-71.927040000">
<ele>0</ele>
<time>2026-09-04T07:32:09Z</time>
</trkpt>
<trkpt lat="46.653170000" lon="-71.927350000">
<ele>0</ele>
<time>2026-09-04T07:32:10Z</time>
</trkpt>
<trkpt lat="46.652840000" lon="-71.927470000">
<ele>0</ele>
<time>2026-09-04T07:32:11Z</time>
</trkpt>
<trkpt lat="46.652340000" lon="-71.927530000">
<ele>0</ele>
<time>2026-09-04T07:32:12Z</time>
</trkpt>
<trkpt lat="46.651100000" lon="-71.927680000">
<ele>0</ele>
<time>2026-09-04T07:32:13Z</time>
</trkpt>
<trkpt lat="46.650970000" lon="-71.927710000">
<ele>0</ele>
<time>2026-09-04T07:32:14Z</time>
</trkpt>
<trkpt lat="46.650680000" lon="-71.927820000">
<ele>0</ele>
<time>2026-09-04T07:32:15Z</time>
</trkpt>
<trkpt lat="46.650440000" lon="-71.927990000">
<ele>0</ele>
<time>2026-09-04T07:32:16Z</time>
</trkpt>
<trkpt lat="46.649960000" lon="-71.928400000">
<ele>0</ele>
<time>2026-09-04T07:32:17Z</time>
</trkpt>
<trkpt lat="46.649420000" lon="-71.928880000">
<ele>0</ele>
<time>2026-09-04T07:32:18Z</time>
</trkpt>
<trkpt lat="46.649420000" lon="-71.928880000">
<ele>0</ele>
<time>2026-09-04T07:32:19Z</time>
</trkpt>
<trkpt lat="46.649050000" lon="-71.929270000">
<ele>0</ele>
<time>2026-09-04T07:32:20Z</time>
</trkpt>
<trkpt lat="46.648840000" lon="-71.929540000">
<ele>0</ele>
<time>2026-09-04T07:32:21Z</time>
</trkpt>
<trkpt lat="46.648530000" lon="-71.929060000">
<ele>0</ele>
<time>2026-09-04T07:32:22Z</time>
</trkpt>
<trkpt lat="46.648220000" lon="-71.928480000">
<ele>0</ele>
<time>2026-09-04T07:32:23Z</time>
</trkpt>
<trkpt lat="46.648210000" lon="-71.928440000">
<ele>0</ele>
<time>2026-09-04T07:32:24Z</time>
</trkpt>
<trkpt lat="46.648210000" lon="-71.928440000">
<ele>0</ele>
<time>2026-09-04T07:32:25Z</time>
</trkpt>
<trkpt lat="46.648090000" lon="-71.928200000">
<ele>0</ele>
<time>2026-09-04T07:32:26Z</time>
</trkpt>
<trkpt lat="46.648150000" lon="-71.927890000">
<ele>0</ele>
<time>2026-09-04T07:32:27Z</time>
</trkpt>
<trkpt lat="46.648160000" lon="-71.927330000">
<ele>0</ele>
<time>2026-09-04T07:32:28Z</time>
</trkpt>
<trkpt lat="46.648160000" lon="-71.927330000">
<ele>0</ele>
<time>2026-09-04T07:32:29Z</time>
</trkpt>
<trkpt lat="46.648150000" lon="-71.927890000">
<ele>0</ele>
<time>2026-09-04T07:32:30Z</time>
</trkpt>
<trkpt lat="46.648090000" lon="-71.928200000">
<ele>0</ele>
<time>2026-09-04T07:32:31Z</time>
</trkpt>
<trkpt lat="46.648250000" lon="-71.928420000">
<ele>0</ele>
<time>2026-09-04T07:32:32Z</time>
</trkpt>
<trkpt lat="46.648660000" lon="-71.929000000">
<ele>0</ele>
<time>2026-09-04T07:32:33Z</time>
</trkpt>
<trkpt lat="46.648660000" lon="-71.929000000">
<ele>0</ele>
<time>2026-09-04T07:32:34Z</time>
</trkpt>
<trkpt lat="46.648950000" lon="-71.929390000">
<ele>0</ele>
<time>2026-09-04T07:32:35Z</time>
</trkpt>
<trkpt lat="46.648840000" lon="-71.929540000">
<ele>0</ele>
<time>2026-09-04T07:32:36Z</time>
</trkpt>
<trkpt lat="46.648700000" lon="-71.929780000">
<ele>0</ele>
<time>2026-09-04T07:32:37Z</time>
</trkpt>
<trkpt lat="46.648490000" lon="-71.930260000">
<ele>0</ele>
<time>2026-09-04T07:32:38Z</time>
</trkpt>
<trkpt lat="46.648330000" lon="-71.930740000">
<ele>0</ele>
<time>2026-09-04T07:32:39Z</time>
</trkpt>
<trkpt lat="46.648210000" lon="-71.931300000">
<ele>0</ele>
<time>2026-09-04T07:32:40Z</time>
</trkpt>
<trkpt lat="46.648070000" lon="-71.932300000">
<ele>0</ele>
<time>2026-09-04T07:32:41Z</time>
</trkpt>
<trkpt lat="46.647980000" lon="-71.932700000">
<ele>0</ele>
<time>2026-09-04T07:32:42Z</time>
</trkpt>
<trkpt lat="46.647850000" lon="-71.933190000">
<ele>0</ele>
<time>2026-09-04T07:32:43Z</time>
</trkpt>
<trkpt lat="46.647550000" lon="-71.934430000">
<ele>0</ele>
<time>2026-09-04T07:32:44Z</time>
</trkpt>
<trkpt lat="46.647230000" lon="-71.935600000">
<ele>0</ele>
<time>2026-09-04T07:32:45Z</time>
</trkpt>
<trkpt lat="46.647060000" lon="-71.936100000">
<ele>0</ele>
<time>2026-09-04T07:32:46Z</time>
</trkpt>
<trkpt lat="46.646340000" lon="-71.938000000">
<ele>0</ele>
<time>2026-09-04T07:32:47Z</time>
</trkpt>
<trkpt lat="46.646190000" lon="-71.938540000">
<ele>0</ele>
<time>2026-09-04T07:32:48Z</time>
</trkpt>
<trkpt lat="46.645970000" lon="-71.939390000">
<ele>0</ele>
<time>2026-09-04T07:32:49Z</time>
</trkpt>
<trkpt lat="46.645750000" lon="-71.940050000">
<ele>0</ele>
<time>2026-09-04T07:32:50Z</time>
</trkpt>
<trkpt lat="46.645510000" lon="-71.940630000">
<ele>0</ele>
<time>2026-09-04T07:32:51Z</time>
</trkpt>
<trkpt lat="46.645190000" lon="-71.941220000">
<ele>0</ele>
<time>2026-09-04T07:32:52Z</time>
</trkpt>
<trkpt lat="46.644950000" lon="-71.941580000">
<ele>0</ele>
<time>2026-09-04T07:32:53Z</time>
</trkpt>
<trkpt lat="46.644490000" lon="-71.942170000">
<ele>0</ele>
<time>2026-09-04T07:32:54Z</time>
</trkpt>
<trkpt lat="46.644040000" lon="-71.942740000">
<ele>0</ele>
<time>2026-09-04T07:32:55Z</time>
</trkpt>
<trkpt lat="46.643660000" lon="-71.943370000">
<ele>0</ele>
<time>2026-09-04T07:32:56Z</time>
</trkpt>
<trkpt lat="46.643340000" lon="-71.944070000">
<ele>0</ele>
<time>2026-09-04T07:32:57Z</time>
</trkpt>
<trkpt lat="46.643080000" lon="-71.944620000">
<ele>0</ele>
<time>2026-09-04T07:32:58Z</time>
</trkpt>
<trkpt lat="46.642890000" lon="-71.944960000">
<ele>0</ele>
<time>2026-09-04T07:32:59Z</time>
</trkpt>
<trkpt lat="46.642480000" lon="-71.945510000">
<ele>0</ele>
<time>2026-09-04T07:33:00Z</time>
</trkpt>
<trkpt lat="46.641690000" lon="-71.946460000">
<ele>0</ele>
<time>2026-09-04T07:33:01Z</time>
</trkpt>
<trkpt lat="46.641450000" lon="-71.946780000">
<ele>0</ele>
<time>2026-09-04T07:33:02Z</time>
</trkpt>
<trkpt lat="46.641220000" lon="-71.947160000">
<ele>0</ele>
<time>2026-09-04T07:33:03Z</time>
</trkpt>
<trkpt lat="46.641030000" lon="-71.947500000">
<ele>0</ele>
<time>2026-09-04T07:33:04Z</time>
</trkpt>
<trkpt lat="46.640780000" lon="-71.948010000">
<ele>0</ele>
<time>2026-09-04T07:33:05Z</time>
</trkpt>
<trkpt lat="46.640450000" lon="-71.948830000">
<ele>0</ele>
<time>2026-09-04T07:33:06Z</time>
</trkpt>
<trkpt lat="46.640300000" lon="-71.949300000">
<ele>0</ele>
<time>2026-09-04T07:33:07Z</time>
</trkpt>
<trkpt lat="46.640160000" lon="-71.949840000">
<ele>0</ele>
<time>2026-09-04T07:33:08Z</time>
</trkpt>
<trkpt lat="46.639990000" lon="-71.950660000">
<ele>0</ele>
<time>2026-09-04T07:33:09Z</time>
</trkpt>
<trkpt lat="46.639580000" lon="-71.953160000">
<ele>0</ele>
<time>2026-09-04T07:33:10Z</time>
</trkpt>
<trkpt lat="46.639380000" lon="-71.954180000">
<ele>0</ele>
<time>2026-09-04T07:33:11Z</time>
</trkpt>
<trkpt lat="46.639170000" lon="-71.955120000">
<ele>0</ele>
<time>2026-09-04T07:33:12Z</time>
</trkpt>
<trkpt lat="46.638820000" lon="-71.956500000">
<ele>0</ele>
<time>2026-09-04T07:33:13Z</time>
</trkpt>
<trkpt lat="46.638490000" lon="-71.957640000">
<ele>0</ele>
<time>2026-09-04T07:33:14Z</time>
</trkpt>
<trkpt lat="46.638210000" lon="-71.958530000">
<ele>0</ele>
<time>2026-09-04T07:33:15Z</time>
</trkpt>
<trkpt lat="46.637770000" lon="-71.959760000">
<ele>0</ele>
<time>2026-09-04T07:33:16Z</time>
</trkpt>
<trkpt lat="46.637320000" lon="-71.960910000">
<ele>0</ele>
<time>2026-09-04T07:33:17Z</time>
</trkpt>
<trkpt lat="46.636870000" lon="-71.961930000">
<ele>0</ele>
<time>2026-09-04T07:33:18Z</time>
</trkpt>
<trkpt lat="46.636420000" lon="-71.962880000">
<ele>0</ele>
<time>2026-09-04T07:33:19Z</time>
</trkpt>
<trkpt lat="46.635350000" lon="-71.965050000">
<ele>0</ele>
<time>2026-09-04T07:33:20Z</time>
</trkpt>
<trkpt lat="46.634400000" lon="-71.966960000">
<ele>0</ele>
<time>2026-09-04T07:33:21Z</time>
</trkpt>
<trkpt lat="46.634180000" lon="-71.967380000">
<ele>0</ele>
<time>2026-09-04T07:33:22Z</time>
</trkpt>
<trkpt lat="46.633890000" lon="-71.967860000">
<ele>0</ele>
<time>2026-09-04T07:33:23Z</time>
</trkpt>
<trkpt lat="46.632520000" lon="-71.969900000">
<ele>0</ele>
<time>2026-09-04T07:33:24Z</time>
</trkpt>
<trkpt lat="46.631960000" lon="-71.970870000">
<ele>0</ele>
<time>2026-09-04T07:33:25Z</time>
</trkpt>
<trkpt lat="46.631630000" lon="-71.971480000">
<ele>0</ele>
<time>2026-09-04T07:33:26Z</time>
</trkpt>
<trkpt lat="46.629590000" lon="-71.975300000">
<ele>0</ele>
<time>2026-09-04T07:33:27Z</time>
</trkpt>
<trkpt lat="46.628830000" lon="-71.976770000">
<ele>0</ele>
<time>2026-09-04T07:33:28Z</time>
</trkpt>
<trkpt lat="46.628480000" lon="-71.977550000">
<ele>0</ele>
<time>2026-09-04T07:33:29Z</time>
</trkpt>
<trkpt lat="46.628300000" lon="-71.977990000">
<ele>0</ele>
<time>2026-09-04T07:33:30Z</time>
</trkpt>
<trkpt lat="46.628040000" lon="-71.978760000">
<ele>0</ele>
<time>2026-09-04T07:33:31Z</time>
</trkpt>
<trkpt lat="46.627890000" lon="-71.979350000">
<ele>0</ele>
<time>2026-09-04T07:33:32Z</time>
</trkpt>
<trkpt lat="46.627730000" lon="-71.980060000">
<ele>0</ele>
<time>2026-09-04T07:33:33Z</time>
</trkpt>
<trkpt lat="46.627500000" lon="-71.981520000">
<ele>0</ele>
<time>2026-09-04T07:33:34Z</time>
</trkpt>
<trkpt lat="46.627150000" lon="-71.983670000">
<ele>0</ele>
<time>2026-09-04T07:33:35Z</time>
</trkpt>
<trkpt lat="46.627050000" lon="-71.984320000">
<ele>0</ele>
<time>2026-09-04T07:33:36Z</time>
</trkpt>
<trkpt lat="46.626920000" lon="-71.985030000">
<ele>0</ele>
<time>2026-09-04T07:33:37Z</time>
</trkpt>
<trkpt lat="46.626750000" lon="-71.985640000">
<ele>0</ele>
<time>2026-09-04T07:33:38Z</time>
</trkpt>
<trkpt lat="46.626370000" lon="-71.986610000">
<ele>0</ele>
<time>2026-09-04T07:33:39Z</time>
</trkpt>
<trkpt lat="46.626120000" lon="-71.987170000">
<ele>0</ele>
<time>2026-09-04T07:33:40Z</time>
</trkpt>
<trkpt lat="46.625520000" lon="-71.988480000">
<ele>0</ele>
<time>2026-09-04T07:33:41Z</time>
</trkpt>
<trkpt lat="46.623860000" lon="-71.992160000">
<ele>0</ele>
<time>2026-09-04T07:33:42Z</time>
</trkpt>
<trkpt lat="46.622630000" lon="-71.994890000">
<ele>0</ele>
<time>2026-09-04T07:33:43Z</time>
</trkpt>
<trkpt lat="46.622170000" lon="-71.995800000">
<ele>0</ele>
<time>2026-09-04T07:33:44Z</time>
</trkpt>
<trkpt lat="46.621810000" lon="-71.996410000">
<ele>0</ele>
<time>2026-09-04T07:33:45Z</time>
</trkpt>
<trkpt lat="46.621450000" lon="-71.996930000">
<ele>0</ele>
<time>2026-09-04T07:33:46Z</time>
</trkpt>
<trkpt lat="46.620900000" lon="-71.997610000">
<ele>0</ele>
<time>2026-09-04T07:33:47Z</time>
</trkpt>
<trkpt lat="46.620730000" lon="-71.997790000">
<ele>0</ele>
<time>2026-09-04T07:33:48Z</time>
</trkpt>
<trkpt lat="46.619680000" lon="-71.998850000">
<ele>0</ele>
<time>2026-09-04T07:33:49Z</time>
</trkpt>
<trkpt lat="46.617980000" lon="-72.000530000">
<ele>0</ele>
<time>2026-09-04T07:33:50Z</time>
</trkpt>
<trkpt lat="46.617310000" lon="-72.001190000">
<ele>0</ele>
<time>2026-09-04T07:33:51Z</time>
</trkpt>
<trkpt lat="46.616820000" lon="-72.001760000">
<ele>0</ele>
<time>2026-09-04T07:33:52Z</time>
</trkpt>
<trkpt lat="46.616370000" lon="-72.002390000">
<ele>0</ele>
<time>2026-09-04T07:33:53Z</time>
</trkpt>
<trkpt lat="46.616220000" lon="-72.002650000">
<ele>0</ele>
<time>2026-09-04T07:33:54Z</time>
</trkpt>
<trkpt lat="46.615990000" lon="-72.003060000">
<ele>0</ele>
<time>2026-09-04T07:33:55Z</time>
</trkpt>
<trkpt lat="46.615820000" lon="-72.003430000">
<ele>0</ele>
<time>2026-09-04T07:33:56Z</time>
</trkpt>
<trkpt lat="46.615380000" lon="-72.004570000">
<ele>0</ele>
<time>2026-09-04T07:33:57Z</time>
</trkpt>
<trkpt lat="46.614660000" lon="-72.006480000">
<ele>0</ele>
<time>2026-09-04T07:33:58Z</time>
</trkpt>
<trkpt lat="46.614500000" lon="-72.006860000">
<ele>0</ele>
<time>2026-09-04T07:33:59Z</time>
</trkpt>
<trkpt lat="46.614200000" lon="-72.007470000">
<ele>0</ele>
<time>2026-09-04T07:34:00Z</time>
</trkpt>
<trkpt lat="46.613790000" lon="-72.008130000">
<ele>0</ele>
<time>2026-09-04T07:34:01Z</time>
</trkpt>
<trkpt lat="46.613590000" lon="-72.008400000">
<ele>0</ele>
<time>2026-09-04T07:34:02Z</time>
</trkpt>
<trkpt lat="46.613290000" lon="-72.008770000">
<ele>0</ele>
<time>2026-09-04T07:34:03Z</time>
</trkpt>
<trkpt lat="46.612550000" lon="-72.009520000">
<ele>0</ele>
<time>2026-09-04T07:34:04Z</time>
</trkpt>
<trkpt lat="46.611950000" lon="-72.010110000">
<ele>0</ele>
<time>2026-09-04T07:34:05Z</time>
</trkpt>
<trkpt lat="46.611390000" lon="-72.010690000">
<ele>0</ele>
<time>2026-09-04T07:34:06Z</time>
</trkpt>
<trkpt lat="46.610430000" lon="-72.011810000">
<ele>0</ele>
<time>2026-09-04T07:34:07Z</time>
</trkpt>
<trkpt lat="46.609030000" lon="-72.013510000">
<ele>0</ele>
<time>2026-09-04T07:34:08Z</time>
</trkpt>
<trkpt lat="46.607620000" lon="-72.015210000">
<ele>0</ele>
<time>2026-09-04T07:34:09Z</time>
</trkpt>
<trkpt lat="46.606810000" lon="-72.016130000">
<ele>0</ele>
<time>2026-09-04T07:34:10Z</time>
</trkpt>
<trkpt lat="46.606000000" lon="-72.016960000">
<ele>0</ele>
<time>2026-09-04T07:34:11Z</time>
</trkpt>
<trkpt lat="46.604540000" lon="-72.018410000">
<ele>0</ele>
<time>2026-09-04T07:34:12Z</time>
</trkpt>
<trkpt lat="46.603760000" lon="-72.019180000">
<ele>0</ele>
<time>2026-09-04T07:34:13Z</time>
</trkpt>
<trkpt lat="46.602990000" lon="-72.019900000">
<ele>0</ele>
<time>2026-09-04T07:34:14Z</time>
</trkpt>
<trkpt lat="46.602090000" lon="-72.020740000">
<ele>0</ele>
<time>2026-09-04T07:34:15Z</time>
</trkpt>
<trkpt lat="46.601770000" lon="-72.021070000">
<ele>0</ele>
<time>2026-09-04T07:34:16Z</time>
</trkpt>
<trkpt lat="46.599820000" lon="-72.023120000">
<ele>0</ele>
<time>2026-09-04T07:34:17Z</time>
</trkpt>
<trkpt lat="46.599340000" lon="-72.023650000">
<ele>0</ele>
<time>2026-09-04T07:34:18Z</time>
</trkpt>
<trkpt lat="46.599480000" lon="-72.023940000">
<ele>0</ele>
<time>2026-09-04T07:34:19Z</time>
</trkpt>
<trkpt lat="46.599420000" lon="-72.023820000">
<ele>0</ele>
<time>2026-09-04T07:34:20Z</time>
</trkpt>
<trkpt lat="46.599560000" lon="-72.024110000">
<ele>0</ele>
<time>2026-09-04T07:34:21Z</time>
</trkpt>
<trkpt lat="46.599370000" lon="-72.024300000">
<ele>0</ele>
<time>2026-09-04T07:34:22Z</time>
</trkpt>
<trkpt lat="46.599300000" lon="-72.024370000">
<ele>0</ele>
<time>2026-09-04T07:34:23Z</time>
</trkpt>
<trkpt lat="46.599300000" lon="-72.024370000">
<ele>0</ele>
<time>2026-09-04T07:34:24Z</time>
</trkpt>
<trkpt lat="46.599010000" lon="-72.024580000">
<ele>0</ele>
<time>2026-09-04T07:34:25Z</time>
</trkpt>
<trkpt lat="46.598870000" lon="-72.024680000">
<ele>0</ele>
<time>2026-09-04T07:34:26Z</time>
</trkpt>
<trkpt lat="46.598740000" lon="-72.024810000">
<ele>0</ele>
<time>2026-09-04T07:34:27Z</time>
</trkpt>
<trkpt lat="46.598350000" lon="-72.025250000">
<ele>0</ele>
<time>2026-09-04T07:34:28Z</time>
</trkpt>
<trkpt lat="46.598050000" lon="-72.025630000">
<ele>0</ele>
<time>2026-09-04T07:34:29Z</time>
</trkpt>
<trkpt lat="46.595960000" lon="-72.028210000">
<ele>0</ele>
<time>2026-09-04T07:34:30Z</time>
</trkpt>
<trkpt lat="46.595480000" lon="-72.028950000">
<ele>0</ele>
<time>2026-09-04T07:34:31Z</time>
</trkpt>
<trkpt lat="46.595040000" lon="-72.029720000">
<ele>0</ele>
<time>2026-09-04T07:34:32Z</time>
</trkpt>
<trkpt lat="46.594730000" lon="-72.030350000">
<ele>0</ele>
<time>2026-09-04T07:34:33Z</time>
</trkpt>
<trkpt lat="46.594320000" lon="-72.031310000">
<ele>0</ele>
<time>2026-09-04T07:34:34Z</time>
</trkpt>
<trkpt lat="46.594170000" lon="-72.031740000">
<ele>0</ele>
<time>2026-09-04T07:34:35Z</time>
</trkpt>
<trkpt lat="46.594000000" lon="-72.032470000">
<ele>0</ele>
<time>2026-09-04T07:34:36Z</time>
</trkpt>
<trkpt lat="46.593610000" lon="-72.034440000">
<ele>0</ele>
<time>2026-09-04T07:34:37Z</time>
</trkpt>
<trkpt lat="46.593530000" lon="-72.034870000">
<ele>0</ele>
<time>2026-09-04T07:34:38Z</time>
</trkpt>
<trkpt lat="46.593420000" lon="-72.035710000">
<ele>0</ele>
<time>2026-09-04T07:34:39Z</time>
</trkpt>
<trkpt lat="46.593130000" lon="-72.038360000">
<ele>0</ele>
<time>2026-09-04T07:34:40Z</time>
</trkpt>
<trkpt lat="46.592960000" lon="-72.041180000">
<ele>0</ele>
<time>2026-09-04T07:34:41Z</time>
</trkpt>
<trkpt lat="46.592910000" lon="-72.042360000">
<ele>0</ele>
<time>2026-09-04T07:34:42Z</time>
</trkpt>
<trkpt lat="46.592910000" lon="-72.043170000">
<ele>0</ele>
<time>2026-09-04T07:34:43Z</time>
</trkpt>
<trkpt lat="46.592850000" lon="-72.044070000">
<ele>0</ele>
<time>2026-09-04T07:34:44Z</time>
</trkpt>
<trkpt lat="46.592510000" lon="-72.046440000">
<ele>0</ele>
<time>2026-09-04T07:34:45Z</time>
</trkpt>
<trkpt lat="46.592440000" lon="-72.046970000">
<ele>0</ele>
<time>2026-09-04T07:34:46Z</time>
</trkpt>
<trkpt lat="46.592500000" lon="-72.047040000">
<ele>0</ele>
<time>2026-09-04T07:34:47Z</time>
</trkpt>
<trkpt lat="46.592540000" lon="-72.047090000">
<ele>0</ele>
<time>2026-09-04T07:34:48Z</time>
</trkpt>
<trkpt lat="46.592560000" lon="-72.047130000">
<ele>0</ele>
<time>2026-09-04T07:34:49Z</time>
</trkpt>
<trkpt lat="46.592590000" lon="-72.047590000">
<ele>0</ele>
<time>2026-09-04T07:34:50Z</time>
</trkpt>
<trkpt lat="46.592590000" lon="-72.047590000">
<ele>0</ele>
<time>2026-09-04T07:34:51Z</time>
</trkpt>
<trkpt lat="46.592620000" lon="-72.048070000">
<ele>0</ele>
<time>2026-09-04T07:34:52Z</time>
</trkpt>
<trkpt lat="46.592710000" lon="-72.048490000">
<ele>0</ele>
<time>2026-09-04T07:34:53Z</time>
</trkpt>
<trkpt lat="46.593190000" lon="-72.050520000">
<ele>0</ele>
<time>2026-09-04T07:34:54Z</time>
</trkpt>
<trkpt lat="46.593300000" lon="-72.051060000">
<ele>0</ele>
<time>2026-09-04T07:34:55Z</time>
</trkpt>
<trkpt lat="46.593330000" lon="-72.051430000">
<ele>0</ele>
<time>2026-09-04T07:34:56Z</time>
</trkpt>
<trkpt lat="46.593350000" lon="-72.052670000">
<ele>0</ele>
<time>2026-09-04T07:34:57Z</time>
</trkpt>
<trkpt lat="46.593400000" lon="-72.053180000">
<ele>0</ele>
<time>2026-09-04T07:34:58Z</time>
</trkpt>
<trkpt lat="46.593650000" lon="-72.054430000">
<ele>0</ele>
<time>2026-09-04T07:34:59Z</time>
</trkpt>
<trkpt lat="46.593780000" lon="-72.054970000">
<ele>0</ele>
<time>2026-09-04T07:35:00Z</time>
</trkpt>
<trkpt lat="46.593800000" lon="-72.055180000">
<ele>0</ele>
<time>2026-09-04T07:35:01Z</time>
</trkpt>
<trkpt lat="46.593850000" lon="-72.055970000">
<ele>0</ele>
<time>2026-09-04T07:35:02Z</time>
</trkpt>
<trkpt lat="46.594000000" lon="-72.057490000">
<ele>0</ele>
<time>2026-09-04T07:35:03Z</time>
</trkpt>
<trkpt lat="46.594080000" lon="-72.058070000">
<ele>0</ele>
<time>2026-09-04T07:35:04Z</time>
</trkpt>
<trkpt lat="46.594240000" lon="-72.058630000">
<ele>0</ele>
<time>2026-09-04T07:35:05Z</time>
</trkpt>
<trkpt lat="46.594390000" lon="-72.059240000">
<ele>0</ele>
<time>2026-09-04T07:35:06Z</time>
</trkpt>
<trkpt lat="46.594560000" lon="-72.059750000">
<ele>0</ele>
<time>2026-09-04T07:35:07Z</time>
</trkpt>
<trkpt lat="46.594720000" lon="-72.060350000">
<ele>0</ele>
<time>2026-09-04T07:35:08Z</time>
</trkpt>
<trkpt lat="46.594930000" lon="-72.061280000">
<ele>0</ele>
<time>2026-09-04T07:35:09Z</time>
</trkpt>
<trkpt lat="46.595130000" lon="-72.062000000">
<ele>0</ele>
<time>2026-09-04T07:35:10Z</time>
</trkpt>
<trkpt lat="46.595380000" lon="-72.062730000">
<ele>0</ele>
<time>2026-09-04T07:35:11Z</time>
</trkpt>
<trkpt lat="46.595590000" lon="-72.063480000">
<ele>0</ele>
<time>2026-09-04T07:35:12Z</time>
</trkpt>
<trkpt lat="46.595700000" lon="-72.064000000">
<ele>0</ele>
<time>2026-09-04T07:35:13Z</time>
</trkpt>
<trkpt lat="46.595810000" lon="-72.064340000">
<ele>0</ele>
<time>2026-09-04T07:35:14Z</time>
</trkpt>
<trkpt lat="46.596160000" lon="-72.065200000">
<ele>0</ele>
<time>2026-09-04T07:35:15Z</time>
</trkpt>
<trkpt lat="46.596630000" lon="-72.066860000">
<ele>0</ele>
<time>2026-09-04T07:35:16Z</time>
</trkpt>
<trkpt lat="46.597230000" lon="-72.068170000">
<ele>0</ele>
<time>2026-09-04T07:35:17Z</time>
</trkpt>
<trkpt lat="46.597260000" lon="-72.068320000">
<ele>0</ele>
<time>2026-09-04T07:35:18Z</time>
</trkpt>
<trkpt lat="46.597260000" lon="-72.068400000">
<ele>0</ele>
<time>2026-09-04T07:35:19Z</time>
</trkpt>
<trkpt lat="46.597250000" lon="-72.068450000">
<ele>0</ele>
<time>2026-09-04T07:35:20Z</time>
</trkpt>
<trkpt lat="46.597230000" lon="-72.068500000">
<ele>0</ele>
<time>2026-09-04T07:35:21Z</time>
</trkpt>
<trkpt lat="46.597110000" lon="-72.068500000">
<ele>0</ele>
<time>2026-09-04T07:35:22Z</time>
</trkpt>
<trkpt lat="46.597110000" lon="-72.068500000">
<ele>0</ele>
<time>2026-09-04T07:35:23Z</time>
</trkpt>
<trkpt lat="46.596940000" lon="-72.068510000">
<ele>0</ele>
<time>2026-09-04T07:35:24Z</time>
</trkpt>
<trkpt lat="46.596810000" lon="-72.068550000">
<ele>0</ele>
<time>2026-09-04T07:35:25Z</time>
</trkpt>
<trkpt lat="46.596490000" lon="-72.068700000">
<ele>0</ele>
<time>2026-09-04T07:35:26Z</time>
</trkpt>
<trkpt lat="46.596580000" lon="-72.069080000">
<ele>0</ele>
<time>2026-09-04T07:35:27Z</time>
</trkpt>
<trkpt lat="46.596590000" lon="-72.069130000">
<ele>0</ele>
<time>2026-09-04T07:35:28Z</time>
</trkpt>
<trkpt lat="46.596590000" lon="-72.069130000">
<ele>0</ele>
<time>2026-09-04T07:35:29Z</time>
</trkpt>
<trkpt lat="46.596740000" lon="-72.070000000">
<ele>0</ele>
<time>2026-09-04T07:35:30Z</time>
</trkpt>
<trkpt lat="46.596770000" lon="-72.070390000">
<ele>0</ele>
<time>2026-09-04T07:35:31Z</time>
</trkpt>
<trkpt lat="46.596780000" lon="-72.070960000">
<ele>0</ele>
<time>2026-09-04T07:35:32Z</time>
</trkpt>
<trkpt lat="46.596760000" lon="-72.071610000">
<ele>0</ele>
<time>2026-09-04T07:35:33Z</time>
</trkpt>
<trkpt lat="46.596540000" lon="-72.074080000">
<ele>0</ele>
<time>2026-09-04T07:35:34Z</time>
</trkpt>
<trkpt lat="46.596390000" lon="-72.075850000">
<ele>0</ele>
<time>2026-09-04T07:35:35Z</time>
</trkpt>
<trkpt lat="46.596380000" lon="-72.076190000">
<ele>0</ele>
<time>2026-09-04T07:35:36Z</time>
</trkpt>
<trkpt lat="46.596400000" lon="-72.076980000">
<ele>0</ele>
<time>2026-09-04T07:35:37Z</time>
</trkpt>
<trkpt lat="46.596460000" lon="-72.077600000">
<ele>0</ele>
<time>2026-09-04T07:35:38Z</time>
</trkpt>
<trkpt lat="46.596560000" lon="-72.078300000">
<ele>0</ele>
<time>2026-09-04T07:35:39Z</time>
</trkpt>
<trkpt lat="46.597720000" lon="-72.083670000">
<ele>0</ele>
<time>2026-09-04T07:35:40Z</time>
</trkpt>
<trkpt lat="46.597880000" lon="-72.084480000">
<ele>0</ele>
<time>2026-09-04T07:35:41Z</time>
</trkpt>
<trkpt lat="46.597970000" lon="-72.085160000">
<ele>0</ele>
<time>2026-09-04T07:35:42Z</time>
</trkpt>
<trkpt lat="46.598050000" lon="-72.086360000">
<ele>0</ele>
<time>2026-09-04T07:35:43Z</time>
</trkpt>
<trkpt lat="46.598060000" lon="-72.087200000">
<ele>0</ele>
<time>2026-09-04T07:35:44Z</time>
</trkpt>
<trkpt lat="46.598020000" lon="-72.088120000">
<ele>0</ele>
<time>2026-09-04T07:35:45Z</time>
</trkpt>
<trkpt lat="46.597520000" lon="-72.093020000">
<ele>0</ele>
<time>2026-09-04T07:35:46Z</time>
</trkpt>
<trkpt lat="46.596870000" lon="-72.099130000">
<ele>0</ele>
<time>2026-09-04T07:35:47Z</time>
</trkpt>
<trkpt lat="46.595850000" lon="-72.108800000">
<ele>0</ele>
<time>2026-09-04T07:35:48Z</time>
</trkpt>
<trkpt lat="46.595720000" lon="-72.109720000">
<ele>0</ele>
<time>2026-09-04T07:35:49Z</time>
</trkpt>
<trkpt lat="46.595580000" lon="-72.110360000">
<ele>0</ele>
<time>2026-09-04T07:35:50Z</time>
</trkpt>
<trkpt lat="46.595400000" lon="-72.110920000">
<ele>0</ele>
<time>2026-09-04T07:35:51Z</time>
</trkpt>
<trkpt lat="46.595200000" lon="-72.111440000">
<ele>0</ele>
<time>2026-09-04T07:35:52Z</time>
</trkpt>
<trkpt lat="46.595010000" lon="-72.111800000">
<ele>0</ele>
<time>2026-09-04T07:35:53Z</time>
</trkpt>
<trkpt lat="46.594710000" lon="-72.112320000">
<ele>0</ele>
<time>2026-09-04T07:35:54Z</time>
</trkpt>
<trkpt lat="46.594160000" lon="-72.113230000">
<ele>0</ele>
<time>2026-09-04T07:35:55Z</time>
</trkpt>
<trkpt lat="46.593550000" lon="-72.114260000">
<ele>0</ele>
<time>2026-09-04T07:35:56Z</time>
</trkpt>
<trkpt lat="46.593300000" lon="-72.114790000">
<ele>0</ele>
<time>2026-09-04T07:35:57Z</time>
</trkpt>
<trkpt lat="46.593160000" lon="-72.115160000">
<ele>0</ele>
<time>2026-09-04T07:35:58Z</time>
</trkpt>
<trkpt lat="46.593080000" lon="-72.115470000">
<ele>0</ele>
<time>2026-09-04T07:35:59Z</time>
</trkpt>
<trkpt lat="46.592970000" lon="-72.115950000">
<ele>0</ele>
<time>2026-09-04T07:36:00Z</time>
</trkpt>
<trkpt lat="46.592920000" lon="-72.116310000">
<ele>0</ele>
<time>2026-09-04T07:36:01Z</time>
</trkpt>
<trkpt lat="46.592900000" lon="-72.116560000">
<ele>0</ele>
<time>2026-09-04T07:36:02Z</time>
</trkpt>
<trkpt lat="46.592890000" lon="-72.117000000">
<ele>0</ele>
<time>2026-09-04T07:36:03Z</time>
</trkpt>
<trkpt lat="46.592930000" lon="-72.118590000">
<ele>0</ele>
<time>2026-09-04T07:36:04Z</time>
</trkpt>
<trkpt lat="46.593040000" lon="-72.121560000">
<ele>0</ele>
<time>2026-09-04T07:36:05Z</time>
</trkpt>
<trkpt lat="46.593020000" lon="-72.122230000">
<ele>0</ele>
<time>2026-09-04T07:36:06Z</time>
</trkpt>
<trkpt lat="46.592980000" lon="-72.122670000">
<ele>0</ele>
<time>2026-09-04T07:36:07Z</time>
</trkpt>
<trkpt lat="46.592910000" lon="-72.123110000">
<ele>0</ele>
<time>2026-09-04T07:36:08Z</time>
</trkpt>
<trkpt lat="46.592830000" lon="-72.123490000">
<ele>0</ele>
<time>2026-09-04T07:36:09Z</time>
</trkpt>
<trkpt lat="46.592720000" lon="-72.123890000">
<ele>0</ele>
<time>2026-09-04T07:36:10Z</time>
</trkpt>
<trkpt lat="46.592500000" lon="-72.124550000">
<ele>0</ele>
<time>2026-09-04T07:36:11Z</time>
</trkpt>
<trkpt lat="46.590310000" lon="-72.130550000">
<ele>0</ele>
<time>2026-09-04T07:36:12Z</time>
</trkpt>
<trkpt lat="46.590140000" lon="-72.131100000">
<ele>0</ele>
<time>2026-09-04T07:36:13Z</time>
</trkpt>
<trkpt lat="46.589910000" lon="-72.132010000">
<ele>0</ele>
<time>2026-09-04T07:36:14Z</time>
</trkpt>
<trkpt lat="46.589810000" lon="-72.132660000">
<ele>0</ele>
<time>2026-09-04T07:36:15Z</time>
</trkpt>
<trkpt lat="46.589210000" lon="-72.137330000">
<ele>0</ele>
<time>2026-09-04T07:36:16Z</time>
</trkpt>
<trkpt lat="46.589130000" lon="-72.137780000">
<ele>0</ele>
<time>2026-09-04T07:36:17Z</time>
</trkpt>
<trkpt lat="46.588900000" lon="-72.138830000">
<ele>0</ele>
<time>2026-09-04T07:36:18Z</time>
</trkpt>
<trkpt lat="46.588600000" lon="-72.139860000">
<ele>0</ele>
<time>2026-09-04T07:36:19Z</time>
</trkpt>
<trkpt lat="46.588350000" lon="-72.140470000">
<ele>0</ele>
<time>2026-09-04T07:36:20Z</time>
</trkpt>
<trkpt lat="46.587890000" lon="-72.141360000">
<ele>0</ele>
<time>2026-09-04T07:36:21Z</time>
</trkpt>
<trkpt lat="46.587670000" lon="-72.141740000">
<ele>0</ele>
<time>2026-09-04T07:36:22Z</time>
</trkpt>
<trkpt lat="46.586640000" lon="-72.143190000">
<ele>0</ele>
<time>2026-09-04T07:36:23Z</time>
</trkpt>
<trkpt lat="46.584980000" lon="-72.145490000">
<ele>0</ele>
<time>2026-09-04T07:36:24Z</time>
</trkpt>
<trkpt lat="46.583570000" lon="-72.147280000">
<ele>0</ele>
<time>2026-09-04T07:36:25Z</time>
</trkpt>
<trkpt lat="46.582000000" lon="-72.149120000">
<ele>0</ele>
<time>2026-09-04T07:36:26Z</time>
</trkpt>
<trkpt lat="46.578310000" lon="-72.153430000">
<ele>0</ele>
<time>2026-09-04T07:36:27Z</time>
</trkpt>
<trkpt lat="46.577600000" lon="-72.154340000">
<ele>0</ele>
<time>2026-09-04T07:36:28Z</time>
</trkpt>
<trkpt lat="46.576920000" lon="-72.155280000">
<ele>0</ele>
<time>2026-09-04T07:36:29Z</time>
</trkpt>
<trkpt lat="46.576500000" lon="-72.155910000">
<ele>0</ele>
<time>2026-09-04T07:36:30Z</time>
</trkpt>
<trkpt lat="46.575980000" lon="-72.156800000">
<ele>0</ele>
<time>2026-09-04T07:36:31Z</time>
</trkpt>
<trkpt lat="46.575790000" lon="-72.157220000">
<ele>0</ele>
<time>2026-09-04T07:36:32Z</time>
</trkpt>
<trkpt lat="46.575710000" lon="-72.157460000">
<ele>0</ele>
<time>2026-09-04T07:36:33Z</time>
</trkpt>
<trkpt lat="46.575510000" lon="-72.158250000">
<ele>0</ele>
<time>2026-09-04T07:36:34Z</time>
</trkpt>
<trkpt lat="46.575420000" lon="-72.158830000">
<ele>0</ele>
<time>2026-09-04T07:36:35Z</time>
</trkpt>
<trkpt lat="46.575370000" lon="-72.159600000">
<ele>0</ele>
<time>2026-09-04T07:36:36Z</time>
</trkpt>
<trkpt lat="46.575330000" lon="-72.160710000">
<ele>0</ele>
<time>2026-09-04T07:36:37Z</time>
</trkpt>
<trkpt lat="46.575270000" lon="-72.161620000">
<ele>0</ele>
<time>2026-09-04T07:36:38Z</time>
</trkpt>
<trkpt lat="46.575150000" lon="-72.162840000">
<ele>0</ele>
<time>2026-09-04T07:36:39Z</time>
</trkpt>
<trkpt lat="46.575020000" lon="-72.163750000">
<ele>0</ele>
<time>2026-09-04T07:36:40Z</time>
</trkpt>
<trkpt lat="46.574450000" lon="-72.167010000">
<ele>0</ele>
<time>2026-09-04T07:36:41Z</time>
</trkpt>
<trkpt lat="46.574060000" lon="-72.169110000">
<ele>0</ele>
<time>2026-09-04T07:36:42Z</time>
</trkpt>
<trkpt lat="46.573680000" lon="-72.170940000">
<ele>0</ele>
<time>2026-09-04T07:36:43Z</time>
</trkpt>
<trkpt lat="46.571750000" lon="-72.178940000">
<ele>0</ele>
<time>2026-09-04T07:36:44Z</time>
</trkpt>
<trkpt lat="46.571540000" lon="-72.179820000">
<ele>0</ele>
<time>2026-09-04T07:36:45Z</time>
</trkpt>
<trkpt lat="46.571320000" lon="-72.179820000">
<ele>0</ele>
<time>2026-09-04T07:36:46Z</time>
</trkpt>
<trkpt lat="46.571320000" lon="-72.179820000">
<ele>0</ele>
<time>2026-09-04T07:36:47Z</time>
</trkpt>
<trkpt lat="46.571180000" lon="-72.179830000">
<ele>0</ele>
<time>2026-09-04T07:36:48Z</time>
</trkpt>
<trkpt lat="46.571080000" lon="-72.179940000">
<ele>0</ele>
<time>2026-09-04T07:36:49Z</time>
</trkpt>
<trkpt lat="46.571010000" lon="-72.180080000">
<ele>0</ele>
<time>2026-09-04T07:36:50Z</time>
</trkpt>
<trkpt lat="46.569700000" lon="-72.183480000">
<ele>0</ele>
<time>2026-09-04T07:36:51Z</time>
</trkpt>
<trkpt lat="46.569210000" lon="-72.184790000">
<ele>0</ele>
<time>2026-09-04T07:36:52Z</time>
</trkpt>
<trkpt lat="46.568930000" lon="-72.185620000">
<ele>0</ele>
<time>2026-09-04T07:36:53Z</time>
</trkpt>
<trkpt lat="46.568830000" lon="-72.186030000">
<ele>0</ele>
<time>2026-09-04T07:36:54Z</time>
</trkpt>
<trkpt lat="46.568780000" lon="-72.186360000">
<ele>0</ele>
<time>2026-09-04T07:36:55Z</time>
</trkpt>
<trkpt lat="46.568760000" lon="-72.186870000">
<ele>0</ele>
<time>2026-09-04T07:36:56Z</time>
</trkpt>
<trkpt lat="46.568830000" lon="-72.189300000">
<ele>0</ele>
<time>2026-09-04T07:36:57Z</time>
</trkpt>
<trkpt lat="46.568850000" lon="-72.189830000">
<ele>0</ele>
<time>2026-09-04T07:36:58Z</time>
</trkpt>
<trkpt lat="46.568800000" lon="-72.190850000">
<ele>0</ele>
<time>2026-09-04T07:36:59Z</time>
</trkpt>
<trkpt lat="46.568730000" lon="-72.191380000">
<ele>0</ele>
<time>2026-09-04T07:37:00Z</time>
</trkpt>
<trkpt lat="46.568040000" lon="-72.194480000">
<ele>0</ele>
<time>2026-09-04T07:37:01Z</time>
</trkpt>
<trkpt lat="46.568000000" lon="-72.194850000">
<ele>0</ele>
<time>2026-09-04T07:37:02Z</time>
</trkpt>
<trkpt lat="46.568010000" lon="-72.195460000">
<ele>0</ele>
<time>2026-09-04T07:37:03Z</time>
</trkpt>
<trkpt lat="46.568130000" lon="-72.197120000">
<ele>0</ele>
<time>2026-09-04T07:37:04Z</time>
</trkpt>
<trkpt lat="46.568440000" lon="-72.200130000">
<ele>0</ele>
<time>2026-09-04T07:37:05Z</time>
</trkpt>
<trkpt lat="46.568510000" lon="-72.200460000">
<ele>0</ele>
<time>2026-09-04T07:37:06Z</time>
</trkpt>
<trkpt lat="46.568720000" lon="-72.200890000">
<ele>0</ele>
<time>2026-09-04T07:37:07Z</time>
</trkpt>
<trkpt lat="46.569010000" lon="-72.201220000">
<ele>0</ele>
<time>2026-09-04T07:37:08Z</time>
</trkpt>
<trkpt lat="46.569750000" lon="-72.201870000">
<ele>0</ele>
<time>2026-09-04T07:37:09Z</time>
</trkpt>
<trkpt lat="46.570200000" lon="-72.202310000">
<ele>0</ele>
<time>2026-09-04T07:37:10Z</time>
</trkpt>
<trkpt lat="46.570480000" lon="-72.202600000">
<ele>0</ele>
<time>2026-09-04T07:37:11Z</time>
</trkpt>
<trkpt lat="46.570800000" lon="-72.203020000">
<ele>0</ele>
<time>2026-09-04T07:37:12Z</time>
</trkpt>
<trkpt lat="46.571170000" lon="-72.203520000">
<ele>0</ele>
<time>2026-09-04T07:37:13Z</time>
</trkpt>
<trkpt lat="46.571370000" lon="-72.203840000">
<ele>0</ele>
<time>2026-09-04T07:37:14Z</time>
</trkpt>
<trkpt lat="46.571540000" lon="-72.204230000">
<ele>0</ele>
<time>2026-09-04T07:37:15Z</time>
</trkpt>
<trkpt lat="46.571640000" lon="-72.204490000">
<ele>0</ele>
<time>2026-09-04T07:37:16Z</time>
</trkpt>
<trkpt lat="46.571830000" lon="-72.204820000">
<ele>0</ele>
<time>2026-09-04T07:37:17Z</time>
</trkpt>
<trkpt lat="46.572190000" lon="-72.205030000">
<ele>0</ele>
<time>2026-09-04T07:37:18Z</time>
</trkpt>
<trkpt lat="46.572190000" lon="-72.205030000">
<ele>0</ele>
<time>2026-09-04T07:37:19Z</time>
</trkpt>
<trkpt lat="46.572300000" lon="-72.205100000">
<ele>0</ele>
<time>2026-09-04T07:37:20Z</time>
</trkpt>
<trkpt lat="46.572300000" lon="-72.205100000">
<ele>0</ele>
<time>2026-09-04T07:37:21Z</time>
</trkpt>
<trkpt lat="46.572520000" lon="-72.205200000">
<ele>0</ele>
<time>2026-09-04T07:37:22Z</time>
</trkpt>
<trkpt lat="46.572690000" lon="-72.205270000">
<ele>0</ele>
<time>2026-09-04T07:37:23Z</time>
</trkpt>
<trkpt lat="46.572860000" lon="-72.205300000">
<ele>0</ele>
<time>2026-09-04T07:37:24Z</time>
</trkpt>
<trkpt lat="46.573230000" lon="-72.205340000">
<ele>0</ele>
<time>2026-09-04T07:37:25Z</time>
</trkpt>
<trkpt lat="46.573580000" lon="-72.204810000">
<ele>0</ele>
<time>2026-09-04T07:37:26Z</time>
</trkpt>
<trkpt lat="46.574240000" lon="-72.203830000">
<ele>0</ele>
<time>2026-09-04T07:37:27Z</time>
</trkpt>
</trkseg>
</trk>
</gpx>
